<?xml version="1.0" encoding="UTF-8" standalone="no" ?>
<gpx xmlns="http://www.topografix.com/GPX/1/1" xmlns:xsi="http://www.w3.org/2001/XMLSchema-instance" xsi:schemaLocation="http://www.topografix.com/GPX/1/1 http://www.topografix.com/GPX/1/1/gpx.xsd" version="1.1" creator="VisuGPX - https://www.visugpx.com">
  <metadata>
    <name>Descente du Mollard d\\\'Arbon</name>
    <desc><![CDATA[Montée par la route, descente raide, pas trés technique mais sympathique]]></desc>
  </metadata>
  <trk>
    <name><![CDATA[2011-04-19-01_Descente du Mollard d'Arbon]]></name>
    <trkseg>
      <trkpt lat="45.29556" lon="5.62929">
        <ele>225</ele>
        <time>2011-04-19T10:11:03Z</time>
      </trkpt>
      <trkpt lat="45.29554" lon="5.62931">
        <ele>225</ele>
        <time>2011-04-19T10:11:04Z</time>
      </trkpt>
      <trkpt lat="45.29543" lon="5.62937">
        <ele>225.2</ele>
        <time>2011-04-19T10:11:08Z</time>
      </trkpt>
      <trkpt lat="45.29537" lon="5.62939">
        <ele>225.4</ele>
        <time>2011-04-19T10:11:10Z</time>
      </trkpt>
      <trkpt lat="45.29528" lon="5.62936">
        <ele>225.7</ele>
        <time>2011-04-19T10:11:13Z</time>
      </trkpt>
      <trkpt lat="45.29524" lon="5.6293">
        <ele>225.8</ele>
        <time>2011-04-19T10:11:15Z</time>
      </trkpt>
      <trkpt lat="45.29516" lon="5.62924">
        <ele>226</ele>
        <time>2011-04-19T10:11:18Z</time>
      </trkpt>
      <trkpt lat="45.29508" lon="5.6293">
        <ele>226.2</ele>
        <time>2011-04-19T10:11:21Z</time>
      </trkpt>
      <trkpt lat="45.295" lon="5.62932">
        <ele>226.6</ele>
        <time>2011-04-19T10:11:24Z</time>
      </trkpt>
      <trkpt lat="45.29493" lon="5.62938">
        <ele>227.2</ele>
        <time>2011-04-19T10:11:27Z</time>
      </trkpt>
      <trkpt lat="45.29492" lon="5.62948">
        <ele>227.6</ele>
        <time>2011-04-19T10:11:30Z</time>
      </trkpt>
      <trkpt lat="45.29493" lon="5.62959">
        <ele>227.9</ele>
        <time>2011-04-19T10:11:33Z</time>
      </trkpt>
      <trkpt lat="45.29495" lon="5.62971">
        <ele>228.3</ele>
        <time>2011-04-19T10:11:36Z</time>
      </trkpt>
      <trkpt lat="45.29496" lon="5.62983">
        <ele>228.7</ele>
        <time>2011-04-19T10:11:39Z</time>
      </trkpt>
      <trkpt lat="45.29498" lon="5.62994">
        <ele>229.1</ele>
        <time>2011-04-19T10:11:42Z</time>
      </trkpt>
      <trkpt lat="45.295" lon="5.63005">
        <ele>229.5</ele>
        <time>2011-04-19T10:11:45Z</time>
      </trkpt>
      <trkpt lat="45.29502" lon="5.63017">
        <ele>230</ele>
        <time>2011-04-19T10:11:48Z</time>
      </trkpt>
      <trkpt lat="45.29504" lon="5.63029">
        <ele>230.4</ele>
        <time>2011-04-19T10:11:51Z</time>
      </trkpt>
      <trkpt lat="45.29506" lon="5.6304">
        <ele>230.8</ele>
        <time>2011-04-19T10:11:54Z</time>
      </trkpt>
      <trkpt lat="45.29508" lon="5.63051">
        <ele>231.2</ele>
        <time>2011-04-19T10:11:57Z</time>
      </trkpt>
      <trkpt lat="45.29511" lon="5.63063">
        <ele>231.6</ele>
        <time>2011-04-19T10:12:00Z</time>
      </trkpt>
      <trkpt lat="45.29514" lon="5.63074">
        <ele>232</ele>
        <time>2011-04-19T10:12:03Z</time>
      </trkpt>
      <trkpt lat="45.29517" lon="5.63086">
        <ele>232.3</ele>
        <time>2011-04-19T10:12:06Z</time>
      </trkpt>
      <trkpt lat="45.29518" lon="5.6309">
        <ele>232.4</ele>
        <time>2011-04-19T10:12:07Z</time>
      </trkpt>
      <trkpt lat="45.29523" lon="5.63108">
        <ele>233.4</ele>
        <time>2011-04-19T10:12:12Z</time>
      </trkpt>
      <trkpt lat="45.29526" lon="5.63119">
        <ele>234</ele>
        <time>2011-04-19T10:12:15Z</time>
      </trkpt>
      <trkpt lat="45.29529" lon="5.6313">
        <ele>234.5</ele>
        <time>2011-04-19T10:12:18Z</time>
      </trkpt>
      <trkpt lat="45.29532" lon="5.63141">
        <ele>235</ele>
        <time>2011-04-19T10:12:21Z</time>
      </trkpt>
      <trkpt lat="45.29536" lon="5.63152">
        <ele>235.5</ele>
        <time>2011-04-19T10:12:24Z</time>
      </trkpt>
      <trkpt lat="45.2954" lon="5.63162">
        <ele>236</ele>
        <time>2011-04-19T10:12:27Z</time>
      </trkpt>
      <trkpt lat="45.29544" lon="5.63173">
        <ele>236.3</ele>
        <time>2011-04-19T10:12:30Z</time>
      </trkpt>
      <trkpt lat="45.29548" lon="5.63184">
        <ele>236.6</ele>
        <time>2011-04-19T10:12:33Z</time>
      </trkpt>
      <trkpt lat="45.29552" lon="5.63195">
        <ele>236.6</ele>
        <time>2011-04-19T10:12:36Z</time>
      </trkpt>
      <trkpt lat="45.29556" lon="5.63206">
        <ele>236.5</ele>
        <time>2011-04-19T10:12:39Z</time>
      </trkpt>
      <trkpt lat="45.2956" lon="5.63216">
        <ele>236.7</ele>
        <time>2011-04-19T10:12:42Z</time>
      </trkpt>
      <trkpt lat="45.29564" lon="5.63227">
        <ele>237</ele>
        <time>2011-04-19T10:12:45Z</time>
      </trkpt>
      <trkpt lat="45.29568" lon="5.63237">
        <ele>237.2</ele>
        <time>2011-04-19T10:12:48Z</time>
      </trkpt>
      <trkpt lat="45.29571" lon="5.63245">
        <ele>237.4</ele>
        <time>2011-04-19T10:12:50Z</time>
      </trkpt>
      <trkpt lat="45.29576" lon="5.63256">
        <ele>237.7</ele>
        <time>2011-04-19T10:12:53Z</time>
      </trkpt>
      <trkpt lat="45.29581" lon="5.63266">
        <ele>238.6</ele>
        <time>2011-04-19T10:12:56Z</time>
      </trkpt>
      <trkpt lat="45.29585" lon="5.63276">
        <ele>238.9</ele>
        <time>2011-04-19T10:12:59Z</time>
      </trkpt>
      <trkpt lat="45.2959" lon="5.63286">
        <ele>239.7</ele>
        <time>2011-04-19T10:13:02Z</time>
      </trkpt>
      <trkpt lat="45.29595" lon="5.63296">
        <ele>240.3</ele>
        <time>2011-04-19T10:13:05Z</time>
      </trkpt>
      <trkpt lat="45.296" lon="5.63305">
        <ele>241.1</ele>
        <time>2011-04-19T10:13:08Z</time>
      </trkpt>
      <trkpt lat="45.29602" lon="5.63308">
        <ele>241.4</ele>
        <time>2011-04-19T10:13:09Z</time>
      </trkpt>
      <trkpt lat="45.29612" lon="5.63324">
        <ele>240.9</ele>
        <time>2011-04-19T10:13:14Z</time>
      </trkpt>
      <trkpt lat="45.29617" lon="5.63333">
        <ele>241.8</ele>
        <time>2011-04-19T10:13:17Z</time>
      </trkpt>
      <trkpt lat="45.29623" lon="5.63342">
        <ele>242.5</ele>
        <time>2011-04-19T10:13:20Z</time>
      </trkpt>
      <trkpt lat="45.29628" lon="5.63351">
        <ele>243.1</ele>
        <time>2011-04-19T10:13:23Z</time>
      </trkpt>
      <trkpt lat="45.29634" lon="5.6336">
        <ele>244.1</ele>
        <time>2011-04-19T10:13:26Z</time>
      </trkpt>
      <trkpt lat="45.2964" lon="5.63369">
        <ele>243.2</ele>
        <time>2011-04-19T10:13:29Z</time>
      </trkpt>
      <trkpt lat="45.29646" lon="5.63379">
        <ele>243.7</ele>
        <time>2011-04-19T10:13:32Z</time>
      </trkpt>
      <trkpt lat="45.29651" lon="5.63388">
        <ele>244.5</ele>
        <time>2011-04-19T10:13:35Z</time>
      </trkpt>
      <trkpt lat="45.29656" lon="5.63396">
        <ele>244.9</ele>
        <time>2011-04-19T10:13:38Z</time>
      </trkpt>
      <trkpt lat="45.29661" lon="5.63405">
        <ele>245.8</ele>
        <time>2011-04-19T10:13:41Z</time>
      </trkpt>
      <trkpt lat="45.29667" lon="5.63415">
        <ele>245.7</ele>
        <time>2011-04-19T10:13:44Z</time>
      </trkpt>
      <trkpt lat="45.29673" lon="5.63424">
        <ele>246.1</ele>
        <time>2011-04-19T10:13:47Z</time>
      </trkpt>
      <trkpt lat="45.29678" lon="5.63432">
        <ele>246.8</ele>
        <time>2011-04-19T10:13:50Z</time>
      </trkpt>
      <trkpt lat="45.29683" lon="5.63441">
        <ele>247.2</ele>
        <time>2011-04-19T10:13:53Z</time>
      </trkpt>
      <trkpt lat="45.29687" lon="5.6345">
        <ele>247.3</ele>
        <time>2011-04-19T10:13:56Z</time>
      </trkpt>
      <trkpt lat="45.29683" lon="5.63458">
        <ele>247.4</ele>
        <time>2011-04-19T10:13:59Z</time>
      </trkpt>
      <trkpt lat="45.29677" lon="5.63465">
        <ele>247.5</ele>
        <time>2011-04-19T10:14:02Z</time>
      </trkpt>
      <trkpt lat="45.29678" lon="5.63476">
        <ele>249.1</ele>
        <time>2011-04-19T10:14:06Z</time>
      </trkpt>
      <trkpt lat="45.29682" lon="5.63484">
        <ele>249.4</ele>
        <time>2011-04-19T10:14:09Z</time>
      </trkpt>
      <trkpt lat="45.29684" lon="5.63488">
        <ele>249.4</ele>
        <time>2011-04-19T10:14:10Z</time>
      </trkpt>
      <trkpt lat="45.29691" lon="5.63503">
        <ele>250</ele>
        <time>2011-04-19T10:14:15Z</time>
      </trkpt>
      <trkpt lat="45.29697" lon="5.63513">
        <ele>250.4</ele>
        <time>2011-04-19T10:14:18Z</time>
      </trkpt>
      <trkpt lat="45.29702" lon="5.63522">
        <ele>250.5</ele>
        <time>2011-04-19T10:14:21Z</time>
      </trkpt>
      <trkpt lat="45.29707" lon="5.63532">
        <ele>250.6</ele>
        <time>2011-04-19T10:14:24Z</time>
      </trkpt>
      <trkpt lat="45.29712" lon="5.63538">
        <ele>250.8</ele>
        <time>2011-04-19T10:14:26Z</time>
      </trkpt>
      <trkpt lat="45.29716" lon="5.63544">
        <ele>251.3</ele>
        <time>2011-04-19T10:14:28Z</time>
      </trkpt>
      <trkpt lat="45.2972" lon="5.63551">
        <ele>251.7</ele>
        <time>2011-04-19T10:14:30Z</time>
      </trkpt>
      <trkpt lat="45.29724" lon="5.63562">
        <ele>252.3</ele>
        <time>2011-04-19T10:14:33Z</time>
      </trkpt>
      <trkpt lat="45.2973" lon="5.63571">
        <ele>252.5</ele>
        <time>2011-04-19T10:14:36Z</time>
      </trkpt>
      <trkpt lat="45.29734" lon="5.63578">
        <ele>253.5</ele>
        <time>2011-04-19T10:14:38Z</time>
      </trkpt>
      <trkpt lat="45.2974" lon="5.63587">
        <ele>253.6</ele>
        <time>2011-04-19T10:14:41Z</time>
      </trkpt>
      <trkpt lat="45.29746" lon="5.63596">
        <ele>254.2</ele>
        <time>2011-04-19T10:14:44Z</time>
      </trkpt>
      <trkpt lat="45.29752" lon="5.63605">
        <ele>255.3</ele>
        <time>2011-04-19T10:14:47Z</time>
      </trkpt>
      <trkpt lat="45.29758" lon="5.63614">
        <ele>256</ele>
        <time>2011-04-19T10:14:50Z</time>
      </trkpt>
      <trkpt lat="45.29762" lon="5.63621">
        <ele>255.7</ele>
        <time>2011-04-19T10:14:52Z</time>
      </trkpt>
      <trkpt lat="45.29766" lon="5.63627">
        <ele>256.5</ele>
        <time>2011-04-19T10:14:54Z</time>
      </trkpt>
      <trkpt lat="45.2977" lon="5.63633">
        <ele>256.7</ele>
        <time>2011-04-19T10:14:56Z</time>
      </trkpt>
      <trkpt lat="45.29775" lon="5.63639">
        <ele>256.6</ele>
        <time>2011-04-19T10:14:58Z</time>
      </trkpt>
      <trkpt lat="45.2978" lon="5.63644">
        <ele>258</ele>
        <time>2011-04-19T10:15:00Z</time>
      </trkpt>
      <trkpt lat="45.29785" lon="5.63648">
        <ele>258.4</ele>
        <time>2011-04-19T10:15:02Z</time>
      </trkpt>
      <trkpt lat="45.29791" lon="5.63652">
        <ele>258.4</ele>
        <time>2011-04-19T10:15:04Z</time>
      </trkpt>
      <trkpt lat="45.29795" lon="5.63662">
        <ele>259</ele>
        <time>2011-04-19T10:15:07Z</time>
      </trkpt>
      <trkpt lat="45.29798" lon="5.63672">
        <ele>259.6</ele>
        <time>2011-04-19T10:15:19Z</time>
      </trkpt>
      <trkpt lat="45.29799" lon="5.63674">
        <ele>259.7</ele>
        <time>2011-04-19T10:15:20Z</time>
      </trkpt>
      <trkpt lat="45.29807" lon="5.63691">
        <ele>259.3</ele>
        <time>2011-04-19T10:15:25Z</time>
      </trkpt>
      <trkpt lat="45.29812" lon="5.63701">
        <ele>259.6</ele>
        <time>2011-04-19T10:15:28Z</time>
      </trkpt>
      <trkpt lat="45.29817" lon="5.63712">
        <ele>260.7</ele>
        <time>2011-04-19T10:15:31Z</time>
      </trkpt>
      <trkpt lat="45.29822" lon="5.63722">
        <ele>261.1</ele>
        <time>2011-04-19T10:15:34Z</time>
      </trkpt>
      <trkpt lat="45.29827" lon="5.63732">
        <ele>261.5</ele>
        <time>2011-04-19T10:15:37Z</time>
      </trkpt>
      <trkpt lat="45.29832" lon="5.63742">
        <ele>261.7</ele>
        <time>2011-04-19T10:15:40Z</time>
      </trkpt>
      <trkpt lat="45.29836" lon="5.63753">
        <ele>263.3</ele>
        <time>2011-04-19T10:15:43Z</time>
      </trkpt>
      <trkpt lat="45.29841" lon="5.63763">
        <ele>263.6</ele>
        <time>2011-04-19T10:15:46Z</time>
      </trkpt>
      <trkpt lat="45.29847" lon="5.63773">
        <ele>264.4</ele>
        <time>2011-04-19T10:15:49Z</time>
      </trkpt>
      <trkpt lat="45.29851" lon="5.63783">
        <ele>266</ele>
        <time>2011-04-19T10:15:52Z</time>
      </trkpt>
      <trkpt lat="45.29855" lon="5.63794">
        <ele>267.1</ele>
        <time>2011-04-19T10:15:55Z</time>
      </trkpt>
      <trkpt lat="45.29861" lon="5.63801">
        <ele>267</ele>
        <time>2011-04-19T10:15:58Z</time>
      </trkpt>
      <trkpt lat="45.29866" lon="5.63808">
        <ele>267.7</ele>
        <time>2011-04-19T10:16:01Z</time>
      </trkpt>
      <trkpt lat="45.29872" lon="5.63815">
        <ele>268.4</ele>
        <time>2011-04-19T10:16:04Z</time>
      </trkpt>
      <trkpt lat="45.29878" lon="5.63822">
        <ele>268.8</ele>
        <time>2011-04-19T10:16:07Z</time>
      </trkpt>
      <trkpt lat="45.29884" lon="5.63829">
        <ele>269.5</ele>
        <time>2011-04-19T10:16:10Z</time>
      </trkpt>
      <trkpt lat="45.29889" lon="5.63835">
        <ele>270.2</ele>
        <time>2011-04-19T10:16:13Z</time>
      </trkpt>
      <trkpt lat="45.29894" lon="5.63843">
        <ele>270.3</ele>
        <time>2011-04-19T10:16:16Z</time>
      </trkpt>
      <trkpt lat="45.29898" lon="5.63851">
        <ele>270.9</ele>
        <time>2011-04-19T10:16:19Z</time>
      </trkpt>
      <trkpt lat="45.29903" lon="5.63859">
        <ele>272.3</ele>
        <time>2011-04-19T10:16:22Z</time>
      </trkpt>
      <trkpt lat="45.29905" lon="5.63862">
        <ele>272.8</ele>
        <time>2011-04-19T10:16:23Z</time>
      </trkpt>
      <trkpt lat="45.29913" lon="5.63874">
        <ele>273.3</ele>
        <time>2011-04-19T10:16:28Z</time>
      </trkpt>
      <trkpt lat="45.29918" lon="5.63881">
        <ele>274.5</ele>
        <time>2011-04-19T10:16:31Z</time>
      </trkpt>
      <trkpt lat="45.29924" lon="5.63886">
        <ele>275.5</ele>
        <time>2011-04-19T10:16:34Z</time>
      </trkpt>
      <trkpt lat="45.29932" lon="5.63892">
        <ele>276</ele>
        <time>2011-04-19T10:16:38Z</time>
      </trkpt>
      <trkpt lat="45.2994" lon="5.63898">
        <ele>277.4</ele>
        <time>2011-04-19T10:16:42Z</time>
      </trkpt>
      <trkpt lat="45.29946" lon="5.63902">
        <ele>277.9</ele>
        <time>2011-04-19T10:16:45Z</time>
      </trkpt>
      <trkpt lat="45.29953" lon="5.63909">
        <ele>279</ele>
        <time>2011-04-19T10:16:49Z</time>
      </trkpt>
      <trkpt lat="45.2996" lon="5.63916">
        <ele>279</ele>
        <time>2011-04-19T10:16:53Z</time>
      </trkpt>
      <trkpt lat="45.29967" lon="5.63922">
        <ele>280.6</ele>
        <time>2011-04-19T10:16:57Z</time>
      </trkpt>
      <trkpt lat="45.29975" lon="5.63928">
        <ele>281.8</ele>
        <time>2011-04-19T10:17:01Z</time>
      </trkpt>
      <trkpt lat="45.29982" lon="5.63932">
        <ele>282.5</ele>
        <time>2011-04-19T10:17:05Z</time>
      </trkpt>
      <trkpt lat="45.29991" lon="5.63935">
        <ele>283.2</ele>
        <time>2011-04-19T10:17:10Z</time>
      </trkpt>
      <trkpt lat="45.29999" lon="5.63935">
        <ele>284.2</ele>
        <time>2011-04-19T10:17:14Z</time>
      </trkpt>
      <trkpt lat="45.30006" lon="5.63936">
        <ele>285.7</ele>
        <time>2011-04-19T10:17:18Z</time>
      </trkpt>
      <trkpt lat="45.30014" lon="5.63935">
        <ele>286</ele>
        <time>2011-04-19T10:17:22Z</time>
      </trkpt>
      <trkpt lat="45.30021" lon="5.63931">
        <ele>287</ele>
        <time>2011-04-19T10:17:26Z</time>
      </trkpt>
      <trkpt lat="45.30023" lon="5.6393">
        <ele>287.2</ele>
        <time>2011-04-19T10:17:27Z</time>
      </trkpt>
      <trkpt lat="45.30035" lon="5.6392">
        <ele>288.8</ele>
        <time>2011-04-19T10:17:35Z</time>
      </trkpt>
      <trkpt lat="45.30042" lon="5.63913">
        <ele>289.2</ele>
        <time>2011-04-19T10:17:39Z</time>
      </trkpt>
      <trkpt lat="45.3005" lon="5.63907">
        <ele>290.2</ele>
        <time>2011-04-19T10:17:43Z</time>
      </trkpt>
      <trkpt lat="45.30057" lon="5.63904">
        <ele>290.9</ele>
        <time>2011-04-19T10:17:46Z</time>
      </trkpt>
      <trkpt lat="45.30066" lon="5.63903">
        <ele>293</ele>
        <time>2011-04-19T10:17:50Z</time>
      </trkpt>
      <trkpt lat="45.30074" lon="5.63908">
        <ele>293.7</ele>
        <time>2011-04-19T10:17:54Z</time>
      </trkpt>
      <trkpt lat="45.3008" lon="5.63915">
        <ele>294.3</ele>
        <time>2011-04-19T10:17:58Z</time>
      </trkpt>
      <trkpt lat="45.30084" lon="5.63925">
        <ele>295.5</ele>
        <time>2011-04-19T10:18:02Z</time>
      </trkpt>
      <trkpt lat="45.30085" lon="5.63936">
        <ele>295.8</ele>
        <time>2011-04-19T10:18:06Z</time>
      </trkpt>
      <trkpt lat="45.30083" lon="5.63947">
        <ele>296.7</ele>
        <time>2011-04-19T10:18:10Z</time>
      </trkpt>
      <trkpt lat="45.30079" lon="5.63956">
        <ele>297.6</ele>
        <time>2011-04-19T10:18:14Z</time>
      </trkpt>
      <trkpt lat="45.30073" lon="5.63963">
        <ele>298.8</ele>
        <time>2011-04-19T10:18:18Z</time>
      </trkpt>
      <trkpt lat="45.30066" lon="5.63968">
        <ele>299.5</ele>
        <time>2011-04-19T10:18:22Z</time>
      </trkpt>
      <trkpt lat="45.30059" lon="5.63972">
        <ele>300.5</ele>
        <time>2011-04-19T10:18:26Z</time>
      </trkpt>
      <trkpt lat="45.30052" lon="5.63976">
        <ele>301.3</ele>
        <time>2011-04-19T10:18:30Z</time>
      </trkpt>
      <trkpt lat="45.3005" lon="5.63977">
        <ele>301.3</ele>
        <time>2011-04-19T10:18:31Z</time>
      </trkpt>
      <trkpt lat="45.30037" lon="5.63984">
        <ele>303.9</ele>
        <time>2011-04-19T10:18:38Z</time>
      </trkpt>
      <trkpt lat="45.3003" lon="5.63987">
        <ele>304.5</ele>
        <time>2011-04-19T10:18:42Z</time>
      </trkpt>
      <trkpt lat="45.30023" lon="5.63991">
        <ele>303.2</ele>
        <time>2011-04-19T10:18:46Z</time>
      </trkpt>
      <trkpt lat="45.30015" lon="5.63995">
        <ele>304.5</ele>
        <time>2011-04-19T10:18:51Z</time>
      </trkpt>
      <trkpt lat="45.30006" lon="5.64">
        <ele>306.6</ele>
        <time>2011-04-19T10:18:56Z</time>
      </trkpt>
      <trkpt lat="45.29998" lon="5.64001">
        <ele>307.4</ele>
        <time>2011-04-19T10:19:02Z</time>
      </trkpt>
      <trkpt lat="45.2999" lon="5.64004">
        <ele>309.1</ele>
        <time>2011-04-19T10:19:07Z</time>
      </trkpt>
      <trkpt lat="45.29982" lon="5.64007">
        <ele>311.1</ele>
        <time>2011-04-19T10:19:12Z</time>
      </trkpt>
      <trkpt lat="45.29975" lon="5.6401">
        <ele>311.2</ele>
        <time>2011-04-19T10:19:16Z</time>
      </trkpt>
      <trkpt lat="45.29967" lon="5.64013">
        <ele>311.5</ele>
        <time>2011-04-19T10:19:20Z</time>
      </trkpt>
      <trkpt lat="45.29959" lon="5.64014">
        <ele>312.2</ele>
        <time>2011-04-19T10:19:25Z</time>
      </trkpt>
      <trkpt lat="45.29951" lon="5.64015">
        <ele>313.7</ele>
        <time>2011-04-19T10:19:29Z</time>
      </trkpt>
      <trkpt lat="45.29943" lon="5.64017">
        <ele>314.2</ele>
        <time>2011-04-19T10:19:33Z</time>
      </trkpt>
      <trkpt lat="45.29941" lon="5.64017">
        <ele>314.2</ele>
        <time>2011-04-19T10:19:34Z</time>
      </trkpt>
      <trkpt lat="45.29928" lon="5.64019">
        <ele>316.5</ele>
        <time>2011-04-19T10:19:41Z</time>
      </trkpt>
      <trkpt lat="45.29919" lon="5.64021">
        <ele>317.3</ele>
        <time>2011-04-19T10:19:45Z</time>
      </trkpt>
      <trkpt lat="45.29911" lon="5.64022">
        <ele>317.4</ele>
        <time>2011-04-19T10:19:49Z</time>
      </trkpt>
      <trkpt lat="45.29902" lon="5.64024">
        <ele>318.6</ele>
        <time>2011-04-19T10:19:53Z</time>
      </trkpt>
      <trkpt lat="45.29894" lon="5.64028">
        <ele>318.9</ele>
        <time>2011-04-19T10:19:57Z</time>
      </trkpt>
      <trkpt lat="45.29886" lon="5.64029">
        <ele>319.8</ele>
        <time>2011-04-19T10:20:01Z</time>
      </trkpt>
      <trkpt lat="45.29879" lon="5.64032">
        <ele>320.3</ele>
        <time>2011-04-19T10:20:05Z</time>
      </trkpt>
      <trkpt lat="45.29871" lon="5.64035">
        <ele>320.5</ele>
        <time>2011-04-19T10:20:09Z</time>
      </trkpt>
      <trkpt lat="45.29863" lon="5.64038">
        <ele>321</ele>
        <time>2011-04-19T10:20:13Z</time>
      </trkpt>
      <trkpt lat="45.29856" lon="5.64042">
        <ele>322.3</ele>
        <time>2011-04-19T10:20:17Z</time>
      </trkpt>
      <trkpt lat="45.29849" lon="5.64047">
        <ele>323.8</ele>
        <time>2011-04-19T10:20:21Z</time>
      </trkpt>
      <trkpt lat="45.29842" lon="5.64053">
        <ele>325</ele>
        <time>2011-04-19T10:20:26Z</time>
      </trkpt>
      <trkpt lat="45.29835" lon="5.64061">
        <ele>325.7</ele>
        <time>2011-04-19T10:20:31Z</time>
      </trkpt>
      <trkpt lat="45.29828" lon="5.64066">
        <ele>327.4</ele>
        <time>2011-04-19T10:20:37Z</time>
      </trkpt>
      <trkpt lat="45.29827" lon="5.64067">
        <ele>327.7</ele>
        <time>2011-04-19T10:20:38Z</time>
      </trkpt>
      <trkpt lat="45.29813" lon="5.64076">
        <ele>329.2</ele>
        <time>2011-04-19T10:20:46Z</time>
      </trkpt>
      <trkpt lat="45.29807" lon="5.64079">
        <ele>329.7</ele>
        <time>2011-04-19T10:20:49Z</time>
      </trkpt>
      <trkpt lat="45.29798" lon="5.64083">
        <ele>330</ele>
        <time>2011-04-19T10:20:53Z</time>
      </trkpt>
      <trkpt lat="45.2979" lon="5.64084">
        <ele>331.4</ele>
        <time>2011-04-19T10:20:57Z</time>
      </trkpt>
      <trkpt lat="45.29782" lon="5.64085">
        <ele>332.3</ele>
        <time>2011-04-19T10:21:01Z</time>
      </trkpt>
      <trkpt lat="45.29775" lon="5.64089">
        <ele>333.2</ele>
        <time>2011-04-19T10:21:05Z</time>
      </trkpt>
      <trkpt lat="45.29769" lon="5.64097">
        <ele>334.5</ele>
        <time>2011-04-19T10:21:09Z</time>
      </trkpt>
      <trkpt lat="45.29766" lon="5.64107">
        <ele>334.1</ele>
        <time>2011-04-19T10:21:13Z</time>
      </trkpt>
      <trkpt lat="45.29765" lon="5.64119">
        <ele>335.6</ele>
        <time>2011-04-19T10:21:17Z</time>
      </trkpt>
      <trkpt lat="45.29772" lon="5.64125">
        <ele>336.6</ele>
        <time>2011-04-19T10:21:22Z</time>
      </trkpt>
      <trkpt lat="45.29781" lon="5.64124">
        <ele>337.6</ele>
        <time>2011-04-19T10:21:27Z</time>
      </trkpt>
      <trkpt lat="45.29789" lon="5.64123">
        <ele>337.7</ele>
        <time>2011-04-19T10:21:31Z</time>
      </trkpt>
      <trkpt lat="45.29796" lon="5.64122">
        <ele>337.7</ele>
        <time>2011-04-19T10:21:35Z</time>
      </trkpt>
      <trkpt lat="45.29804" lon="5.64119">
        <ele>339</ele>
        <time>2011-04-19T10:21:39Z</time>
      </trkpt>
      <trkpt lat="45.29806" lon="5.64118">
        <ele>339.5</ele>
        <time>2011-04-19T10:21:40Z</time>
      </trkpt>
      <trkpt lat="45.29821" lon="5.64113">
        <ele>340.8</ele>
        <time>2011-04-19T10:21:47Z</time>
      </trkpt>
      <trkpt lat="45.2983" lon="5.64109">
        <ele>340.3</ele>
        <time>2011-04-19T10:21:51Z</time>
      </trkpt>
      <trkpt lat="45.29836" lon="5.64107">
        <ele>340.9</ele>
        <time>2011-04-19T10:21:54Z</time>
      </trkpt>
      <trkpt lat="45.29843" lon="5.64105">
        <ele>341.7</ele>
        <time>2011-04-19T10:21:57Z</time>
      </trkpt>
      <trkpt lat="45.29851" lon="5.64103">
        <ele>343.4</ele>
        <time>2011-04-19T10:22:00Z</time>
      </trkpt>
      <trkpt lat="45.29858" lon="5.64102">
        <ele>343.6</ele>
        <time>2011-04-19T10:22:03Z</time>
      </trkpt>
      <trkpt lat="45.29866" lon="5.641">
        <ele>343.5</ele>
        <time>2011-04-19T10:22:07Z</time>
      </trkpt>
      <trkpt lat="45.29874" lon="5.64098">
        <ele>344.2</ele>
        <time>2011-04-19T10:22:11Z</time>
      </trkpt>
      <trkpt lat="45.29882" lon="5.64096">
        <ele>345.5</ele>
        <time>2011-04-19T10:22:14Z</time>
      </trkpt>
      <trkpt lat="45.29889" lon="5.64095">
        <ele>346.3</ele>
        <time>2011-04-19T10:22:17Z</time>
      </trkpt>
      <trkpt lat="45.29896" lon="5.64095">
        <ele>346.5</ele>
        <time>2011-04-19T10:22:20Z</time>
      </trkpt>
      <trkpt lat="45.29903" lon="5.64096">
        <ele>346.2</ele>
        <time>2011-04-19T10:22:23Z</time>
      </trkpt>
      <trkpt lat="45.29909" lon="5.64098">
        <ele>348.1</ele>
        <time>2011-04-19T10:22:26Z</time>
      </trkpt>
      <trkpt lat="45.29917" lon="5.64102">
        <ele>348.6</ele>
        <time>2011-04-19T10:22:30Z</time>
      </trkpt>
      <trkpt lat="45.29924" lon="5.64106">
        <ele>348.5</ele>
        <time>2011-04-19T10:22:33Z</time>
      </trkpt>
      <trkpt lat="45.29931" lon="5.64113">
        <ele>349.2</ele>
        <time>2011-04-19T10:22:37Z</time>
      </trkpt>
      <trkpt lat="45.29937" lon="5.64118">
        <ele>350.5</ele>
        <time>2011-04-19T10:22:40Z</time>
      </trkpt>
      <trkpt lat="45.29939" lon="5.6412">
        <ele>350.9</ele>
        <time>2011-04-19T10:22:41Z</time>
      </trkpt>
      <trkpt lat="45.29951" lon="5.64124">
        <ele>351.6</ele>
        <time>2011-04-19T10:22:47Z</time>
      </trkpt>
      <trkpt lat="45.2996" lon="5.64121">
        <ele>352.1</ele>
        <time>2011-04-19T10:22:50Z</time>
      </trkpt>
      <trkpt lat="45.29968" lon="5.64117">
        <ele>352.1</ele>
        <time>2011-04-19T10:22:53Z</time>
      </trkpt>
      <trkpt lat="45.29975" lon="5.64113">
        <ele>353</ele>
        <time>2011-04-19T10:22:56Z</time>
      </trkpt>
      <trkpt lat="45.29984" lon="5.64111">
        <ele>353.4</ele>
        <time>2011-04-19T10:22:59Z</time>
      </trkpt>
      <trkpt lat="45.29992" lon="5.64109">
        <ele>353.8</ele>
        <time>2011-04-19T10:23:02Z</time>
      </trkpt>
      <trkpt lat="45.30001" lon="5.64109">
        <ele>354.8</ele>
        <time>2011-04-19T10:23:05Z</time>
      </trkpt>
      <trkpt lat="45.30009" lon="5.6411">
        <ele>355.1</ele>
        <time>2011-04-19T10:23:08Z</time>
      </trkpt>
      <trkpt lat="45.30018" lon="5.64112">
        <ele>355.7</ele>
        <time>2011-04-19T10:23:11Z</time>
      </trkpt>
      <trkpt lat="45.30025" lon="5.64114">
        <ele>356.8</ele>
        <time>2011-04-19T10:23:14Z</time>
      </trkpt>
      <trkpt lat="45.30034" lon="5.64116">
        <ele>357.5</ele>
        <time>2011-04-19T10:23:17Z</time>
      </trkpt>
      <trkpt lat="45.30042" lon="5.64118">
        <ele>357.4</ele>
        <time>2011-04-19T10:23:20Z</time>
      </trkpt>
      <trkpt lat="45.3005" lon="5.64119">
        <ele>357.6</ele>
        <time>2011-04-19T10:23:23Z</time>
      </trkpt>
      <trkpt lat="45.30058" lon="5.64121">
        <ele>358</ele>
        <time>2011-04-19T10:23:26Z</time>
      </trkpt>
      <trkpt lat="45.30066" lon="5.64123">
        <ele>358.8</ele>
        <time>2011-04-19T10:23:29Z</time>
      </trkpt>
      <trkpt lat="45.30074" lon="5.64125">
        <ele>359.6</ele>
        <time>2011-04-19T10:23:32Z</time>
      </trkpt>
      <trkpt lat="45.30081" lon="5.64128">
        <ele>360.5</ele>
        <time>2011-04-19T10:23:35Z</time>
      </trkpt>
      <trkpt lat="45.30088" lon="5.64134">
        <ele>361.4</ele>
        <time>2011-04-19T10:23:38Z</time>
      </trkpt>
      <trkpt lat="45.30094" lon="5.64143">
        <ele>361.7</ele>
        <time>2011-04-19T10:23:41Z</time>
      </trkpt>
      <trkpt lat="45.30095" lon="5.64146">
        <ele>361.7</ele>
        <time>2011-04-19T10:23:42Z</time>
      </trkpt>
      <trkpt lat="45.301" lon="5.64164">
        <ele>362.5</ele>
        <time>2011-04-19T10:23:47Z</time>
      </trkpt>
      <trkpt lat="45.30102" lon="5.64173">
        <ele>363.1</ele>
        <time>2011-04-19T10:23:50Z</time>
      </trkpt>
      <trkpt lat="45.30103" lon="5.64185">
        <ele>363.9</ele>
        <time>2011-04-19T10:23:53Z</time>
      </trkpt>
      <trkpt lat="45.30104" lon="5.64196">
        <ele>364.4</ele>
        <time>2011-04-19T10:23:56Z</time>
      </trkpt>
      <trkpt lat="45.30106" lon="5.64206">
        <ele>364.8</ele>
        <time>2011-04-19T10:23:59Z</time>
      </trkpt>
      <trkpt lat="45.30108" lon="5.64218">
        <ele>365.7</ele>
        <time>2011-04-19T10:24:02Z</time>
      </trkpt>
      <trkpt lat="45.30111" lon="5.64228">
        <ele>366.4</ele>
        <time>2011-04-19T10:24:05Z</time>
      </trkpt>
      <trkpt lat="45.30114" lon="5.64239">
        <ele>367</ele>
        <time>2011-04-19T10:24:08Z</time>
      </trkpt>
      <trkpt lat="45.30116" lon="5.64249">
        <ele>367.7</ele>
        <time>2011-04-19T10:24:11Z</time>
      </trkpt>
      <trkpt lat="45.30119" lon="5.64259">
        <ele>368</ele>
        <time>2011-04-19T10:24:14Z</time>
      </trkpt>
      <trkpt lat="45.30123" lon="5.64269">
        <ele>369.1</ele>
        <time>2011-04-19T10:24:17Z</time>
      </trkpt>
      <trkpt lat="45.30127" lon="5.6428">
        <ele>369</ele>
        <time>2011-04-19T10:24:20Z</time>
      </trkpt>
      <trkpt lat="45.30131" lon="5.6429">
        <ele>370.6</ele>
        <time>2011-04-19T10:24:23Z</time>
      </trkpt>
      <trkpt lat="45.30135" lon="5.643">
        <ele>370.5</ele>
        <time>2011-04-19T10:24:26Z</time>
      </trkpt>
      <trkpt lat="45.30138" lon="5.6431">
        <ele>371</ele>
        <time>2011-04-19T10:24:29Z</time>
      </trkpt>
      <trkpt lat="45.30142" lon="5.6432">
        <ele>371.8</ele>
        <time>2011-04-19T10:24:32Z</time>
      </trkpt>
      <trkpt lat="45.30146" lon="5.6433">
        <ele>372.4</ele>
        <time>2011-04-19T10:24:35Z</time>
      </trkpt>
      <trkpt lat="45.3015" lon="5.64339">
        <ele>373.9</ele>
        <time>2011-04-19T10:24:38Z</time>
      </trkpt>
      <trkpt lat="45.30154" lon="5.64349">
        <ele>373.7</ele>
        <time>2011-04-19T10:24:41Z</time>
      </trkpt>
      <trkpt lat="45.30158" lon="5.64359">
        <ele>373.5</ele>
        <time>2011-04-19T10:24:44Z</time>
      </trkpt>
      <trkpt lat="45.30159" lon="5.64362">
        <ele>373.6</ele>
        <time>2011-04-19T10:24:45Z</time>
      </trkpt>
      <trkpt lat="45.30166" lon="5.64378">
        <ele>375.8</ele>
        <time>2011-04-19T10:24:50Z</time>
      </trkpt>
      <trkpt lat="45.3017" lon="5.64388">
        <ele>376.2</ele>
        <time>2011-04-19T10:24:53Z</time>
      </trkpt>
      <trkpt lat="45.30174" lon="5.64397">
        <ele>376.8</ele>
        <time>2011-04-19T10:24:56Z</time>
      </trkpt>
      <trkpt lat="45.30178" lon="5.64406">
        <ele>377.3</ele>
        <time>2011-04-19T10:24:59Z</time>
      </trkpt>
      <trkpt lat="45.30183" lon="5.64415">
        <ele>377.4</ele>
        <time>2011-04-19T10:25:02Z</time>
      </trkpt>
      <trkpt lat="45.30187" lon="5.64424">
        <ele>378</ele>
        <time>2011-04-19T10:25:05Z</time>
      </trkpt>
      <trkpt lat="45.30192" lon="5.64433">
        <ele>378.9</ele>
        <time>2011-04-19T10:25:08Z</time>
      </trkpt>
      <trkpt lat="45.30197" lon="5.64441">
        <ele>378.9</ele>
        <time>2011-04-19T10:25:11Z</time>
      </trkpt>
      <trkpt lat="45.30202" lon="5.64449">
        <ele>380.1</ele>
        <time>2011-04-19T10:25:14Z</time>
      </trkpt>
      <trkpt lat="45.30207" lon="5.64457">
        <ele>380.3</ele>
        <time>2011-04-19T10:25:17Z</time>
      </trkpt>
      <trkpt lat="45.30212" lon="5.64465">
        <ele>380.3</ele>
        <time>2011-04-19T10:25:20Z</time>
      </trkpt>
      <trkpt lat="45.30218" lon="5.64472">
        <ele>381.4</ele>
        <time>2011-04-19T10:25:23Z</time>
      </trkpt>
      <trkpt lat="45.30224" lon="5.64478">
        <ele>382</ele>
        <time>2011-04-19T10:25:26Z</time>
      </trkpt>
      <trkpt lat="45.3023" lon="5.64485">
        <ele>382.4</ele>
        <time>2011-04-19T10:25:29Z</time>
      </trkpt>
      <trkpt lat="45.30235" lon="5.64492">
        <ele>383.4</ele>
        <time>2011-04-19T10:25:32Z</time>
      </trkpt>
      <trkpt lat="45.3024" lon="5.64499">
        <ele>384.1</ele>
        <time>2011-04-19T10:25:35Z</time>
      </trkpt>
      <trkpt lat="45.30246" lon="5.64505">
        <ele>384.3</ele>
        <time>2011-04-19T10:25:38Z</time>
      </trkpt>
      <trkpt lat="45.30251" lon="5.64511">
        <ele>384.8</ele>
        <time>2011-04-19T10:25:41Z</time>
      </trkpt>
      <trkpt lat="45.30257" lon="5.64517">
        <ele>385.5</ele>
        <time>2011-04-19T10:25:44Z</time>
      </trkpt>
      <trkpt lat="45.30262" lon="5.64523">
        <ele>386.1</ele>
        <time>2011-04-19T10:25:47Z</time>
      </trkpt>
      <trkpt lat="45.30264" lon="5.64525">
        <ele>386.2</ele>
        <time>2011-04-19T10:25:48Z</time>
      </trkpt>
      <trkpt lat="45.30274" lon="5.64538">
        <ele>387.2</ele>
        <time>2011-04-19T10:25:54Z</time>
      </trkpt>
      <trkpt lat="45.3028" lon="5.64547">
        <ele>388.2</ele>
        <time>2011-04-19T10:25:58Z</time>
      </trkpt>
      <trkpt lat="45.30287" lon="5.64555">
        <ele>388.6</ele>
        <time>2011-04-19T10:26:02Z</time>
      </trkpt>
      <trkpt lat="45.30292" lon="5.64562">
        <ele>389.7</ele>
        <time>2011-04-19T10:26:06Z</time>
      </trkpt>
      <trkpt lat="45.30297" lon="5.64571">
        <ele>390.2</ele>
        <time>2011-04-19T10:26:10Z</time>
      </trkpt>
      <trkpt lat="45.30301" lon="5.6458">
        <ele>391.4</ele>
        <time>2011-04-19T10:26:14Z</time>
      </trkpt>
      <trkpt lat="45.30303" lon="5.64592">
        <ele>392.3</ele>
        <time>2011-04-19T10:26:19Z</time>
      </trkpt>
      <trkpt lat="45.30305" lon="5.64604">
        <ele>393.3</ele>
        <time>2011-04-19T10:26:24Z</time>
      </trkpt>
      <trkpt lat="45.30305" lon="5.64615">
        <ele>394.8</ele>
        <time>2011-04-19T10:26:29Z</time>
      </trkpt>
      <trkpt lat="45.30304" lon="5.64627">
        <ele>396.2</ele>
        <time>2011-04-19T10:26:34Z</time>
      </trkpt>
      <trkpt lat="45.30302" lon="5.64638">
        <ele>397.1</ele>
        <time>2011-04-19T10:26:39Z</time>
      </trkpt>
      <trkpt lat="45.30302" lon="5.6465">
        <ele>397.8</ele>
        <time>2011-04-19T10:26:44Z</time>
      </trkpt>
      <trkpt lat="45.30301" lon="5.64661">
        <ele>399.8</ele>
        <time>2011-04-19T10:26:49Z</time>
      </trkpt>
      <trkpt lat="45.303" lon="5.64664">
        <ele>399.8</ele>
        <time>2011-04-19T10:26:50Z</time>
      </trkpt>
      <trkpt lat="45.30299" lon="5.64684">
        <ele>399.8</ele>
        <time>2011-04-19T10:26:59Z</time>
      </trkpt>
      <trkpt lat="45.30299" lon="5.64696">
        <ele>401.9</ele>
        <time>2011-04-19T10:27:04Z</time>
      </trkpt>
      <trkpt lat="45.30299" lon="5.64709">
        <ele>403.7</ele>
        <time>2011-04-19T10:27:09Z</time>
      </trkpt>
      <trkpt lat="45.30299" lon="5.64721">
        <ele>404.7</ele>
        <time>2011-04-19T10:27:14Z</time>
      </trkpt>
      <trkpt lat="45.303" lon="5.64733">
        <ele>404.7</ele>
        <time>2011-04-19T10:27:19Z</time>
      </trkpt>
      <trkpt lat="45.30301" lon="5.64745">
        <ele>405.1</ele>
        <time>2011-04-19T10:27:23Z</time>
      </trkpt>
      <trkpt lat="45.30301" lon="5.64756">
        <ele>405.4</ele>
        <time>2011-04-19T10:27:26Z</time>
      </trkpt>
      <trkpt lat="45.303" lon="5.64767">
        <ele>405.5</ele>
        <time>2011-04-19T10:27:29Z</time>
      </trkpt>
      <trkpt lat="45.30299" lon="5.64779">
        <ele>404.8</ele>
        <time>2011-04-19T10:27:32Z</time>
      </trkpt>
      <trkpt lat="45.30299" lon="5.6479">
        <ele>405</ele>
        <time>2011-04-19T10:27:35Z</time>
      </trkpt>
      <trkpt lat="45.30299" lon="5.648">
        <ele>406</ele>
        <time>2011-04-19T10:27:38Z</time>
      </trkpt>
      <trkpt lat="45.30301" lon="5.64811">
        <ele>406.4</ele>
        <time>2011-04-19T10:27:41Z</time>
      </trkpt>
      <trkpt lat="45.30303" lon="5.64822">
        <ele>406.5</ele>
        <time>2011-04-19T10:27:44Z</time>
      </trkpt>
      <trkpt lat="45.30302" lon="5.64834">
        <ele>406.8</ele>
        <time>2011-04-19T10:27:47Z</time>
      </trkpt>
      <trkpt lat="45.30302" lon="5.64846">
        <ele>406.9</ele>
        <time>2011-04-19T10:27:50Z</time>
      </trkpt>
      <trkpt lat="45.30302" lon="5.6485">
        <ele>407.3</ele>
        <time>2011-04-19T10:27:51Z</time>
      </trkpt>
      <trkpt lat="45.30304" lon="5.64869">
        <ele>407.5</ele>
        <time>2011-04-19T10:27:56Z</time>
      </trkpt>
      <trkpt lat="45.30306" lon="5.6488">
        <ele>408.8</ele>
        <time>2011-04-19T10:27:59Z</time>
      </trkpt>
      <trkpt lat="45.3031" lon="5.6489">
        <ele>408.4</ele>
        <time>2011-04-19T10:28:02Z</time>
      </trkpt>
      <trkpt lat="45.30318" lon="5.64895">
        <ele>409.5</ele>
        <time>2011-04-19T10:28:05Z</time>
      </trkpt>
      <trkpt lat="45.30325" lon="5.64894">
        <ele>410</ele>
        <time>2011-04-19T10:28:08Z</time>
      </trkpt>
      <trkpt lat="45.30333" lon="5.64889">
        <ele>410.8</ele>
        <time>2011-04-19T10:28:12Z</time>
      </trkpt>
      <trkpt lat="45.30339" lon="5.64879">
        <ele>411</ele>
        <time>2011-04-19T10:28:16Z</time>
      </trkpt>
      <trkpt lat="45.30343" lon="5.64869">
        <ele>412</ele>
        <time>2011-04-19T10:28:20Z</time>
      </trkpt>
      <trkpt lat="45.30346" lon="5.6486">
        <ele>412.1</ele>
        <time>2011-04-19T10:28:24Z</time>
      </trkpt>
      <trkpt lat="45.30349" lon="5.6485">
        <ele>413.3</ele>
        <time>2011-04-19T10:28:28Z</time>
      </trkpt>
      <trkpt lat="45.30352" lon="5.64841">
        <ele>413.6</ele>
        <time>2011-04-19T10:28:32Z</time>
      </trkpt>
      <trkpt lat="45.30358" lon="5.64831">
        <ele>415.6</ele>
        <time>2011-04-19T10:28:37Z</time>
      </trkpt>
      <trkpt lat="45.30364" lon="5.64824">
        <ele>418</ele>
        <time>2011-04-19T10:28:42Z</time>
      </trkpt>
      <trkpt lat="45.3037" lon="5.64819">
        <ele>418.6</ele>
        <time>2011-04-19T10:28:47Z</time>
      </trkpt>
      <trkpt lat="45.30378" lon="5.64814">
        <ele>419.9</ele>
        <time>2011-04-19T10:28:53Z</time>
      </trkpt>
      <trkpt lat="45.30379" lon="5.64814">
        <ele>420.1</ele>
        <time>2011-04-19T10:28:54Z</time>
      </trkpt>
      <trkpt lat="45.30395" lon="5.64818">
        <ele>424</ele>
        <time>2011-04-19T10:29:06Z</time>
      </trkpt>
      <trkpt lat="45.30401" lon="5.64827">
        <ele>425.2</ele>
        <time>2011-04-19T10:29:13Z</time>
      </trkpt>
      <trkpt lat="45.30405" lon="5.64836">
        <ele>427</ele>
        <time>2011-04-19T10:29:19Z</time>
      </trkpt>
      <trkpt lat="45.3041" lon="5.64845">
        <ele>428</ele>
        <time>2011-04-19T10:29:25Z</time>
      </trkpt>
      <trkpt lat="45.30415" lon="5.64853">
        <ele>429</ele>
        <time>2011-04-19T10:29:31Z</time>
      </trkpt>
      <trkpt lat="45.3042" lon="5.64862">
        <ele>430.7</ele>
        <time>2011-04-19T10:29:37Z</time>
      </trkpt>
      <trkpt lat="45.30426" lon="5.6487">
        <ele>431.3</ele>
        <time>2011-04-19T10:29:43Z</time>
      </trkpt>
      <trkpt lat="45.30432" lon="5.64878">
        <ele>432.1</ele>
        <time>2011-04-19T10:29:49Z</time>
      </trkpt>
      <trkpt lat="45.30438" lon="5.64887">
        <ele>433.7</ele>
        <time>2011-04-19T10:29:55Z</time>
      </trkpt>
      <trkpt lat="45.30438" lon="5.64889">
        <ele>433.7</ele>
        <time>2011-04-19T10:29:56Z</time>
      </trkpt>
      <trkpt lat="45.30446" lon="5.64908">
        <ele>435.6</ele>
        <time>2011-04-19T10:30:07Z</time>
      </trkpt>
      <trkpt lat="45.3045" lon="5.64918">
        <ele>436.9</ele>
        <time>2011-04-19T10:30:13Z</time>
      </trkpt>
      <trkpt lat="45.30454" lon="5.64928">
        <ele>438.9</ele>
        <time>2011-04-19T10:30:19Z</time>
      </trkpt>
      <trkpt lat="45.30458" lon="5.64939">
        <ele>439.6</ele>
        <time>2011-04-19T10:30:25Z</time>
      </trkpt>
      <trkpt lat="45.3046" lon="5.64951">
        <ele>440.3</ele>
        <time>2011-04-19T10:30:31Z</time>
      </trkpt>
      <trkpt lat="45.30463" lon="5.64962">
        <ele>441.2</ele>
        <time>2011-04-19T10:30:37Z</time>
      </trkpt>
      <trkpt lat="45.30464" lon="5.64973">
        <ele>442.9</ele>
        <time>2011-04-19T10:30:43Z</time>
      </trkpt>
      <trkpt lat="45.30465" lon="5.64985">
        <ele>443.6</ele>
        <time>2011-04-19T10:30:49Z</time>
      </trkpt>
      <trkpt lat="45.30465" lon="5.64997">
        <ele>444.9</ele>
        <time>2011-04-19T10:30:55Z</time>
      </trkpt>
      <trkpt lat="45.30464" lon="5.65008">
        <ele>446.9</ele>
        <time>2011-04-19T10:31:01Z</time>
      </trkpt>
      <trkpt lat="45.30464" lon="5.6501">
        <ele>447.2</ele>
        <time>2011-04-19T10:31:02Z</time>
      </trkpt>
      <trkpt lat="45.3046" lon="5.6503">
        <ele>448.7</ele>
        <time>2011-04-19T10:31:13Z</time>
      </trkpt>
      <trkpt lat="45.30456" lon="5.6504">
        <ele>450.3</ele>
        <time>2011-04-19T10:31:19Z</time>
      </trkpt>
      <trkpt lat="45.30451" lon="5.6505">
        <ele>451.9</ele>
        <time>2011-04-19T10:31:26Z</time>
      </trkpt>
      <trkpt lat="45.30445" lon="5.65058">
        <ele>451.9</ele>
        <time>2011-04-19T10:31:32Z</time>
      </trkpt>
      <trkpt lat="45.30439" lon="5.65066">
        <ele>453.7</ele>
        <time>2011-04-19T10:31:39Z</time>
      </trkpt>
      <trkpt lat="45.30431" lon="5.65073">
        <ele>455.7</ele>
        <time>2011-04-19T10:31:46Z</time>
      </trkpt>
      <trkpt lat="45.30424" lon="5.65078">
        <ele>456.8</ele>
        <time>2011-04-19T10:31:52Z</time>
      </trkpt>
      <trkpt lat="45.30417" lon="5.65083">
        <ele>457.2</ele>
        <time>2011-04-19T10:31:58Z</time>
      </trkpt>
      <trkpt lat="45.3041" lon="5.65084">
        <ele>458.2</ele>
        <time>2011-04-19T10:32:03Z</time>
      </trkpt>
      <trkpt lat="45.30408" lon="5.65084">
        <ele>458.5</ele>
        <time>2011-04-19T10:32:04Z</time>
      </trkpt>
      <trkpt lat="45.30393" lon="5.65082">
        <ele>460.2</ele>
        <time>2011-04-19T10:32:15Z</time>
      </trkpt>
      <trkpt lat="45.30385" lon="5.65082">
        <ele>461.4</ele>
        <time>2011-04-19T10:32:21Z</time>
      </trkpt>
      <trkpt lat="45.30377" lon="5.65086">
        <ele>462.5</ele>
        <time>2011-04-19T10:32:27Z</time>
      </trkpt>
      <trkpt lat="45.30369" lon="5.65092">
        <ele>463.9</ele>
        <time>2011-04-19T10:32:33Z</time>
      </trkpt>
      <trkpt lat="45.30364" lon="5.65101">
        <ele>464.1</ele>
        <time>2011-04-19T10:32:38Z</time>
      </trkpt>
      <trkpt lat="45.3036" lon="5.65111">
        <ele>465.2</ele>
        <time>2011-04-19T10:32:57Z</time>
      </trkpt>
      <trkpt lat="45.30357" lon="5.65122">
        <ele>465.8</ele>
        <time>2011-04-19T10:33:03Z</time>
      </trkpt>
      <trkpt lat="45.30355" lon="5.65134">
        <ele>467.4</ele>
        <time>2011-04-19T10:33:09Z</time>
      </trkpt>
      <trkpt lat="45.30355" lon="5.65136">
        <ele>467.7</ele>
        <time>2011-04-19T10:33:10Z</time>
      </trkpt>
      <trkpt lat="45.3035" lon="5.65156">
        <ele>469.5</ele>
        <time>2011-04-19T10:33:21Z</time>
      </trkpt>
      <trkpt lat="45.30347" lon="5.65167">
        <ele>471.2</ele>
        <time>2011-04-19T10:33:27Z</time>
      </trkpt>
      <trkpt lat="45.30345" lon="5.65177">
        <ele>472.5</ele>
        <time>2011-04-19T10:33:33Z</time>
      </trkpt>
      <trkpt lat="45.30343" lon="5.65188">
        <ele>473.7</ele>
        <time>2011-04-19T10:33:39Z</time>
      </trkpt>
      <trkpt lat="45.30341" lon="5.65198">
        <ele>475.4</ele>
        <time>2011-04-19T10:33:45Z</time>
      </trkpt>
      <trkpt lat="45.30337" lon="5.6521">
        <ele>476.1</ele>
        <time>2011-04-19T10:33:52Z</time>
      </trkpt>
      <trkpt lat="45.30336" lon="5.65222">
        <ele>476.7</ele>
        <time>2011-04-19T10:33:59Z</time>
      </trkpt>
      <trkpt lat="45.30335" lon="5.65235">
        <ele>479.7</ele>
        <time>2011-04-19T10:34:06Z</time>
      </trkpt>
      <trkpt lat="45.30334" lon="5.65247">
        <ele>480.9</ele>
        <time>2011-04-19T10:34:13Z</time>
      </trkpt>
      <trkpt lat="45.30333" lon="5.65248">
        <ele>481</ele>
        <time>2011-04-19T10:34:14Z</time>
      </trkpt>
      <trkpt lat="45.30331" lon="5.6527">
        <ele>483.6</ele>
        <time>2011-04-19T10:34:27Z</time>
      </trkpt>
      <trkpt lat="45.30328" lon="5.65281">
        <ele>485.4</ele>
        <time>2011-04-19T10:34:34Z</time>
      </trkpt>
      <trkpt lat="45.30326" lon="5.65292">
        <ele>486.4</ele>
        <time>2011-04-19T10:34:41Z</time>
      </trkpt>
      <trkpt lat="45.30326" lon="5.65304">
        <ele>487.5</ele>
        <time>2011-04-19T10:34:48Z</time>
      </trkpt>
      <trkpt lat="45.30322" lon="5.65316">
        <ele>491.2</ele>
        <time>2011-04-19T10:34:56Z</time>
      </trkpt>
      <trkpt lat="45.30317" lon="5.65325">
        <ele>491.8</ele>
        <time>2011-04-19T10:35:04Z</time>
      </trkpt>
      <trkpt lat="45.3031" lon="5.65335">
        <ele>494.2</ele>
        <time>2011-04-19T10:35:13Z</time>
      </trkpt>
      <trkpt lat="45.30304" lon="5.65343">
        <ele>495.5</ele>
        <time>2011-04-19T10:35:22Z</time>
      </trkpt>
      <trkpt lat="45.30303" lon="5.65344">
        <ele>495.8</ele>
        <time>2011-04-19T10:35:23Z</time>
      </trkpt>
      <trkpt lat="45.30291" lon="5.65359">
        <ele>498.1</ele>
        <time>2011-04-19T10:35:38Z</time>
      </trkpt>
      <trkpt lat="45.30283" lon="5.65364">
        <ele>500.6</ele>
        <time>2011-04-19T10:35:46Z</time>
      </trkpt>
      <trkpt lat="45.30276" lon="5.6537">
        <ele>501</ele>
        <time>2011-04-19T10:35:54Z</time>
      </trkpt>
      <trkpt lat="45.3027" lon="5.65379">
        <ele>502.3</ele>
        <time>2011-04-19T10:36:01Z</time>
      </trkpt>
      <trkpt lat="45.30264" lon="5.65388">
        <ele>503.3</ele>
        <time>2011-04-19T10:36:08Z</time>
      </trkpt>
      <trkpt lat="45.30261" lon="5.65399">
        <ele>505.6</ele>
        <time>2011-04-19T10:36:15Z</time>
      </trkpt>
      <trkpt lat="45.30256" lon="5.65408">
        <ele>507</ele>
        <time>2011-04-19T10:36:22Z</time>
      </trkpt>
      <trkpt lat="45.30251" lon="5.65419">
        <ele>508.3</ele>
        <time>2011-04-19T10:36:30Z</time>
      </trkpt>
      <trkpt lat="45.30252" lon="5.65421">
        <ele>508.5</ele>
        <time>2011-04-19T10:36:31Z</time>
      </trkpt>
      <trkpt lat="45.30246" lon="5.65441">
        <ele>511.6</ele>
        <time>2011-04-19T10:36:44Z</time>
      </trkpt>
      <trkpt lat="45.30246" lon="5.65454">
        <ele>512.2</ele>
        <time>2011-04-19T10:36:51Z</time>
      </trkpt>
      <trkpt lat="45.30244" lon="5.65466">
        <ele>514.2</ele>
        <time>2011-04-19T10:36:58Z</time>
      </trkpt>
      <trkpt lat="45.30242" lon="5.65478">
        <ele>514.1</ele>
        <time>2011-04-19T10:37:04Z</time>
      </trkpt>
      <trkpt lat="45.3024" lon="5.65489">
        <ele>515</ele>
        <time>2011-04-19T10:37:10Z</time>
      </trkpt>
      <trkpt lat="45.30236" lon="5.65498">
        <ele>516.4</ele>
        <time>2011-04-19T10:37:15Z</time>
      </trkpt>
      <trkpt lat="45.30232" lon="5.65509">
        <ele>517.5</ele>
        <time>2011-04-19T10:37:21Z</time>
      </trkpt>
      <trkpt lat="45.30231" lon="5.6552">
        <ele>517.9</ele>
        <time>2011-04-19T10:37:27Z</time>
      </trkpt>
      <trkpt lat="45.3023" lon="5.65531">
        <ele>520.2</ele>
        <time>2011-04-19T10:37:33Z</time>
      </trkpt>
      <trkpt lat="45.3023" lon="5.65533">
        <ele>520.5</ele>
        <time>2011-04-19T10:37:34Z</time>
      </trkpt>
      <trkpt lat="45.30229" lon="5.65554">
        <ele>522.3</ele>
        <time>2011-04-19T10:37:45Z</time>
      </trkpt>
      <trkpt lat="45.30229" lon="5.65566">
        <ele>523.3</ele>
        <time>2011-04-19T10:37:51Z</time>
      </trkpt>
      <trkpt lat="45.30229" lon="5.65577">
        <ele>524.2</ele>
        <time>2011-04-19T10:37:56Z</time>
      </trkpt>
      <trkpt lat="45.30229" lon="5.65589">
        <ele>525.3</ele>
        <time>2011-04-19T10:38:02Z</time>
      </trkpt>
      <trkpt lat="45.30229" lon="5.65601">
        <ele>525.9</ele>
        <time>2011-04-19T10:38:08Z</time>
      </trkpt>
      <trkpt lat="45.30227" lon="5.65613">
        <ele>526.9</ele>
        <time>2011-04-19T10:38:13Z</time>
      </trkpt>
      <trkpt lat="45.30225" lon="5.65624">
        <ele>527.7</ele>
        <time>2011-04-19T10:38:18Z</time>
      </trkpt>
      <trkpt lat="45.30223" lon="5.65635">
        <ele>528.3</ele>
        <time>2011-04-19T10:38:23Z</time>
      </trkpt>
      <trkpt lat="45.3022" lon="5.65646">
        <ele>529.1</ele>
        <time>2011-04-19T10:38:28Z</time>
      </trkpt>
      <trkpt lat="45.30217" lon="5.65656">
        <ele>529.9</ele>
        <time>2011-04-19T10:38:33Z</time>
      </trkpt>
      <trkpt lat="45.30213" lon="5.65667">
        <ele>531.4</ele>
        <time>2011-04-19T10:38:38Z</time>
      </trkpt>
      <trkpt lat="45.30212" lon="5.65669">
        <ele>531.6</ele>
        <time>2011-04-19T10:38:39Z</time>
      </trkpt>
      <trkpt lat="45.30203" lon="5.65685">
        <ele>532.5</ele>
        <time>2011-04-19T10:38:49Z</time>
      </trkpt>
      <trkpt lat="45.30197" lon="5.65691">
        <ele>533.6</ele>
        <time>2011-04-19T10:38:55Z</time>
      </trkpt>
      <trkpt lat="45.30189" lon="5.65696">
        <ele>535.3</ele>
        <time>2011-04-19T10:39:01Z</time>
      </trkpt>
      <trkpt lat="45.30183" lon="5.65703">
        <ele>535.6</ele>
        <time>2011-04-19T10:39:07Z</time>
      </trkpt>
      <trkpt lat="45.30176" lon="5.65708">
        <ele>537.3</ele>
        <time>2011-04-19T10:39:13Z</time>
      </trkpt>
      <trkpt lat="45.30169" lon="5.65715">
        <ele>538.6</ele>
        <time>2011-04-19T10:39:20Z</time>
      </trkpt>
      <trkpt lat="45.30162" lon="5.65722">
        <ele>540.6</ele>
        <time>2011-04-19T10:39:26Z</time>
      </trkpt>
      <trkpt lat="45.30156" lon="5.65731">
        <ele>541.9</ele>
        <time>2011-04-19T10:39:33Z</time>
      </trkpt>
      <trkpt lat="45.30149" lon="5.6574">
        <ele>543.1</ele>
        <time>2011-04-19T10:39:40Z</time>
      </trkpt>
      <trkpt lat="45.30149" lon="5.65742">
        <ele>543.6</ele>
        <time>2011-04-19T10:39:41Z</time>
      </trkpt>
      <trkpt lat="45.30135" lon="5.65755">
        <ele>545.6</ele>
        <time>2011-04-19T10:39:54Z</time>
      </trkpt>
      <trkpt lat="45.3013" lon="5.65763">
        <ele>547.3</ele>
        <time>2011-04-19T10:40:00Z</time>
      </trkpt>
      <trkpt lat="45.30125" lon="5.65773">
        <ele>548.4</ele>
        <time>2011-04-19T10:40:06Z</time>
      </trkpt>
      <trkpt lat="45.30121" lon="5.65783">
        <ele>549.1</ele>
        <time>2011-04-19T10:40:12Z</time>
      </trkpt>
      <trkpt lat="45.30118" lon="5.65794">
        <ele>551.1</ele>
        <time>2011-04-19T10:40:19Z</time>
      </trkpt>
      <trkpt lat="45.30116" lon="5.65806">
        <ele>552.1</ele>
        <time>2011-04-19T10:40:25Z</time>
      </trkpt>
      <trkpt lat="45.30112" lon="5.65817">
        <ele>553.3</ele>
        <time>2011-04-19T10:40:32Z</time>
      </trkpt>
      <trkpt lat="45.30107" lon="5.65826">
        <ele>554.5</ele>
        <time>2011-04-19T10:40:38Z</time>
      </trkpt>
      <trkpt lat="45.30103" lon="5.65837">
        <ele>555</ele>
        <time>2011-04-19T10:40:44Z</time>
      </trkpt>
      <trkpt lat="45.30103" lon="5.65838">
        <ele>555</ele>
        <time>2011-04-19T10:40:45Z</time>
      </trkpt>
      <trkpt lat="45.30094" lon="5.65855">
        <ele>557</ele>
        <time>2011-04-19T10:40:56Z</time>
      </trkpt>
      <trkpt lat="45.30089" lon="5.65864">
        <ele>558.8</ele>
        <time>2011-04-19T10:41:02Z</time>
      </trkpt>
      <trkpt lat="45.30084" lon="5.65874">
        <ele>559.8</ele>
        <time>2011-04-19T10:41:08Z</time>
      </trkpt>
      <trkpt lat="45.3008" lon="5.65885">
        <ele>560.8</ele>
        <time>2011-04-19T10:41:14Z</time>
      </trkpt>
      <trkpt lat="45.30077" lon="5.65896">
        <ele>562.1</ele>
        <time>2011-04-19T10:41:46Z</time>
      </trkpt>
      <trkpt lat="45.30077" lon="5.65897">
        <ele>561.9</ele>
        <time>2011-04-19T10:41:47Z</time>
      </trkpt>
      <trkpt lat="45.30082" lon="5.65907">
        <ele>563.5</ele>
        <time>2011-04-19T10:44:57Z</time>
      </trkpt>
      <trkpt lat="45.30082" lon="5.65931">
        <ele>564.5</ele>
        <time>2011-04-19T10:45:18Z</time>
      </trkpt>
      <trkpt lat="45.30079" lon="5.65943">
        <ele>566</ele>
        <time>2011-04-19T10:45:25Z</time>
      </trkpt>
      <trkpt lat="45.30075" lon="5.65954">
        <ele>566.6</ele>
        <time>2011-04-19T10:45:32Z</time>
      </trkpt>
      <trkpt lat="45.30071" lon="5.65965">
        <ele>568.5</ele>
        <time>2011-04-19T10:45:39Z</time>
      </trkpt>
      <trkpt lat="45.30066" lon="5.65975">
        <ele>569.2</ele>
        <time>2011-04-19T10:45:45Z</time>
      </trkpt>
      <trkpt lat="45.30062" lon="5.65984">
        <ele>570.3</ele>
        <time>2011-04-19T10:45:51Z</time>
      </trkpt>
      <trkpt lat="45.30057" lon="5.65993">
        <ele>571.1</ele>
        <time>2011-04-19T10:45:57Z</time>
      </trkpt>
      <trkpt lat="45.30056" lon="5.65995">
        <ele>571.3</ele>
        <time>2011-04-19T10:45:58Z</time>
      </trkpt>
      <trkpt lat="45.30047" lon="5.66012">
        <ele>574.5</ele>
        <time>2011-04-19T10:46:09Z</time>
      </trkpt>
      <trkpt lat="45.30043" lon="5.66022">
        <ele>576</ele>
        <time>2011-04-19T10:46:15Z</time>
      </trkpt>
      <trkpt lat="45.30039" lon="5.66034">
        <ele>577.6</ele>
        <time>2011-04-19T10:46:21Z</time>
      </trkpt>
      <trkpt lat="45.30036" lon="5.66041">
        <ele>577.3</ele>
        <time>2011-04-19T10:46:25Z</time>
      </trkpt>
      <trkpt lat="45.30033" lon="5.66051">
        <ele>577.8</ele>
        <time>2011-04-19T10:46:30Z</time>
      </trkpt>
      <trkpt lat="45.30029" lon="5.66062">
        <ele>579.2</ele>
        <time>2011-04-19T10:46:36Z</time>
      </trkpt>
      <trkpt lat="45.30025" lon="5.66072">
        <ele>579.4</ele>
        <time>2011-04-19T10:46:41Z</time>
      </trkpt>
      <trkpt lat="45.3002" lon="5.66081">
        <ele>581.3</ele>
        <time>2011-04-19T10:46:46Z</time>
      </trkpt>
      <trkpt lat="45.30014" lon="5.66088">
        <ele>581.3</ele>
        <time>2011-04-19T10:46:51Z</time>
      </trkpt>
      <trkpt lat="45.30007" lon="5.66093">
        <ele>581.9</ele>
        <time>2011-04-19T10:46:56Z</time>
      </trkpt>
      <trkpt lat="45.29999" lon="5.66093">
        <ele>582.5</ele>
        <time>2011-04-19T10:47:01Z</time>
      </trkpt>
      <trkpt lat="45.29998" lon="5.66093">
        <ele>582.5</ele>
        <time>2011-04-19T10:47:02Z</time>
      </trkpt>
      <trkpt lat="45.29984" lon="5.66086">
        <ele>583.8</ele>
        <time>2011-04-19T10:47:12Z</time>
      </trkpt>
      <trkpt lat="45.29976" lon="5.66082">
        <ele>584.7</ele>
        <time>2011-04-19T10:47:18Z</time>
      </trkpt>
      <trkpt lat="45.2997" lon="5.66076">
        <ele>587</ele>
        <time>2011-04-19T10:47:24Z</time>
      </trkpt>
      <trkpt lat="45.29963" lon="5.6607">
        <ele>587.2</ele>
        <time>2011-04-19T10:47:30Z</time>
      </trkpt>
      <trkpt lat="45.29955" lon="5.66065">
        <ele>589.8</ele>
        <time>2011-04-19T10:47:36Z</time>
      </trkpt>
      <trkpt lat="45.29949" lon="5.6606">
        <ele>590.1</ele>
        <time>2011-04-19T10:47:41Z</time>
      </trkpt>
      <trkpt lat="45.29941" lon="5.66053">
        <ele>590.8</ele>
        <time>2011-04-19T10:47:47Z</time>
      </trkpt>
      <trkpt lat="45.29936" lon="5.66045">
        <ele>592.4</ele>
        <time>2011-04-19T10:47:53Z</time>
      </trkpt>
      <trkpt lat="45.29931" lon="5.66036">
        <ele>593.4</ele>
        <time>2011-04-19T10:47:59Z</time>
      </trkpt>
      <trkpt lat="45.29928" lon="5.66024">
        <ele>594.7</ele>
        <time>2011-04-19T10:48:05Z</time>
      </trkpt>
      <trkpt lat="45.29928" lon="5.66022">
        <ele>595.5</ele>
        <time>2011-04-19T10:48:06Z</time>
      </trkpt>
      <trkpt lat="45.29929" lon="5.66001">
        <ele>596.9</ele>
        <time>2011-04-19T10:48:17Z</time>
      </trkpt>
      <trkpt lat="45.29929" lon="5.65989">
        <ele>599</ele>
        <time>2011-04-19T10:48:23Z</time>
      </trkpt>
      <trkpt lat="45.29928" lon="5.65977">
        <ele>598.5</ele>
        <time>2011-04-19T10:48:29Z</time>
      </trkpt>
      <trkpt lat="45.29928" lon="5.65966">
        <ele>601.5</ele>
        <time>2011-04-19T10:48:34Z</time>
      </trkpt>
      <trkpt lat="45.29929" lon="5.65955">
        <ele>601.4</ele>
        <time>2011-04-19T10:48:39Z</time>
      </trkpt>
      <trkpt lat="45.2993" lon="5.65944">
        <ele>603.3</ele>
        <time>2011-04-19T10:48:44Z</time>
      </trkpt>
      <trkpt lat="45.29929" lon="5.65932">
        <ele>604.4</ele>
        <time>2011-04-19T10:48:50Z</time>
      </trkpt>
      <trkpt lat="45.29928" lon="5.65921">
        <ele>605.2</ele>
        <time>2011-04-19T10:48:55Z</time>
      </trkpt>
      <trkpt lat="45.29928" lon="5.6591">
        <ele>606.1</ele>
        <time>2011-04-19T10:49:00Z</time>
      </trkpt>
      <trkpt lat="45.29929" lon="5.65899">
        <ele>606.6</ele>
        <time>2011-04-19T10:49:05Z</time>
      </trkpt>
      <trkpt lat="45.29932" lon="5.65888">
        <ele>608.2</ele>
        <time>2011-04-19T10:49:10Z</time>
      </trkpt>
      <trkpt lat="45.29932" lon="5.65886">
        <ele>608.3</ele>
        <time>2011-04-19T10:49:11Z</time>
      </trkpt>
      <trkpt lat="45.29935" lon="5.65867">
        <ele>609.3</ele>
        <time>2011-04-19T10:49:20Z</time>
      </trkpt>
      <trkpt lat="45.29938" lon="5.65855">
        <ele>611.6</ele>
        <time>2011-04-19T10:49:26Z</time>
      </trkpt>
      <trkpt lat="45.29939" lon="5.65843">
        <ele>612.2</ele>
        <time>2011-04-19T10:49:32Z</time>
      </trkpt>
      <trkpt lat="45.29938" lon="5.65831">
        <ele>613.8</ele>
        <time>2011-04-19T10:49:38Z</time>
      </trkpt>
      <trkpt lat="45.29933" lon="5.65821">
        <ele>615.1</ele>
        <time>2011-04-19T10:49:44Z</time>
      </trkpt>
      <trkpt lat="45.29926" lon="5.65815">
        <ele>615.9</ele>
        <time>2011-04-19T10:49:50Z</time>
      </trkpt>
      <trkpt lat="45.29918" lon="5.65809">
        <ele>617.4</ele>
        <time>2011-04-19T10:49:56Z</time>
      </trkpt>
      <trkpt lat="45.29913" lon="5.658">
        <ele>618.9</ele>
        <time>2011-04-19T10:50:02Z</time>
      </trkpt>
      <trkpt lat="45.29907" lon="5.6579">
        <ele>620</ele>
        <time>2011-04-19T10:50:08Z</time>
      </trkpt>
      <trkpt lat="45.29902" lon="5.6578">
        <ele>621.2</ele>
        <time>2011-04-19T10:50:14Z</time>
      </trkpt>
      <trkpt lat="45.29901" lon="5.65779">
        <ele>621.5</ele>
        <time>2011-04-19T10:50:15Z</time>
      </trkpt>
      <trkpt lat="45.29889" lon="5.65766">
        <ele>622.6</ele>
        <time>2011-04-19T10:50:25Z</time>
      </trkpt>
      <trkpt lat="45.29882" lon="5.65762">
        <ele>624.9</ele>
        <time>2011-04-19T10:50:30Z</time>
      </trkpt>
      <trkpt lat="45.29877" lon="5.65754">
        <ele>626.4</ele>
        <time>2011-04-19T10:50:35Z</time>
      </trkpt>
      <trkpt lat="45.29872" lon="5.65746">
        <ele>627</ele>
        <time>2011-04-19T10:50:40Z</time>
      </trkpt>
      <trkpt lat="45.29868" lon="5.65735">
        <ele>627.2</ele>
        <time>2011-04-19T10:50:46Z</time>
      </trkpt>
      <trkpt lat="45.29865" lon="5.65725">
        <ele>628.8</ele>
        <time>2011-04-19T10:50:51Z</time>
      </trkpt>
      <trkpt lat="45.29862" lon="5.65715">
        <ele>629.5</ele>
        <time>2011-04-19T10:50:56Z</time>
      </trkpt>
      <trkpt lat="45.29859" lon="5.65705">
        <ele>630.7</ele>
        <time>2011-04-19T10:51:01Z</time>
      </trkpt>
      <trkpt lat="45.29856" lon="5.65695">
        <ele>632.3</ele>
        <time>2011-04-19T10:51:06Z</time>
      </trkpt>
      <trkpt lat="45.29852" lon="5.65685">
        <ele>632.7</ele>
        <time>2011-04-19T10:51:12Z</time>
      </trkpt>
      <trkpt lat="45.29851" lon="5.65672">
        <ele>634</ele>
        <time>2011-04-19T10:51:18Z</time>
      </trkpt>
      <trkpt lat="45.29851" lon="5.6567">
        <ele>634.1</ele>
        <time>2011-04-19T10:51:19Z</time>
      </trkpt>
      <trkpt lat="45.29851" lon="5.65648">
        <ele>636.1</ele>
        <time>2011-04-19T10:51:29Z</time>
      </trkpt>
      <trkpt lat="45.2985" lon="5.65637">
        <ele>637.4</ele>
        <time>2011-04-19T10:51:34Z</time>
      </trkpt>
      <trkpt lat="45.29849" lon="5.65627">
        <ele>638</ele>
        <time>2011-04-19T10:51:39Z</time>
      </trkpt>
      <trkpt lat="45.29848" lon="5.65616">
        <ele>639.3</ele>
        <time>2011-04-19T10:51:44Z</time>
      </trkpt>
      <trkpt lat="45.29847" lon="5.65603">
        <ele>640.2</ele>
        <time>2011-04-19T10:51:50Z</time>
      </trkpt>
      <trkpt lat="45.29846" lon="5.65593">
        <ele>641.3</ele>
        <time>2011-04-19T10:51:55Z</time>
      </trkpt>
      <trkpt lat="45.29846" lon="5.65582">
        <ele>641.4</ele>
        <time>2011-04-19T10:52:00Z</time>
      </trkpt>
      <trkpt lat="45.29845" lon="5.65571">
        <ele>643.1</ele>
        <time>2011-04-19T10:52:05Z</time>
      </trkpt>
      <trkpt lat="45.29846" lon="5.65559">
        <ele>644.6</ele>
        <time>2011-04-19T10:52:11Z</time>
      </trkpt>
      <trkpt lat="45.29849" lon="5.65547">
        <ele>646</ele>
        <time>2011-04-19T10:52:17Z</time>
      </trkpt>
      <trkpt lat="45.29851" lon="5.65535">
        <ele>647.6</ele>
        <time>2011-04-19T10:52:23Z</time>
      </trkpt>
      <trkpt lat="45.29852" lon="5.65533">
        <ele>647.8</ele>
        <time>2011-04-19T10:52:24Z</time>
      </trkpt>
      <trkpt lat="45.29853" lon="5.65512">
        <ele>649.9</ele>
        <time>2011-04-19T10:52:34Z</time>
      </trkpt>
      <trkpt lat="45.2985" lon="5.65502">
        <ele>650.9</ele>
        <time>2011-04-19T10:52:39Z</time>
      </trkpt>
      <trkpt lat="45.29845" lon="5.65492">
        <ele>652.2</ele>
        <time>2011-04-19T10:52:45Z</time>
      </trkpt>
      <trkpt lat="45.2984" lon="5.65485">
        <ele>653.1</ele>
        <time>2011-04-19T10:52:50Z</time>
      </trkpt>
      <trkpt lat="45.29834" lon="5.65478">
        <ele>654.4</ele>
        <time>2011-04-19T10:52:55Z</time>
      </trkpt>
      <trkpt lat="45.29827" lon="5.65471">
        <ele>654.8</ele>
        <time>2011-04-19T10:53:00Z</time>
      </trkpt>
      <trkpt lat="45.29821" lon="5.65464">
        <ele>655.7</ele>
        <time>2011-04-19T10:53:05Z</time>
      </trkpt>
      <trkpt lat="45.29815" lon="5.65457">
        <ele>656.7</ele>
        <time>2011-04-19T10:53:10Z</time>
      </trkpt>
      <trkpt lat="45.29807" lon="5.65451">
        <ele>657.1</ele>
        <time>2011-04-19T10:53:15Z</time>
      </trkpt>
      <trkpt lat="45.29801" lon="5.65444">
        <ele>658.1</ele>
        <time>2011-04-19T10:53:20Z</time>
      </trkpt>
      <trkpt lat="45.29794" lon="5.65438">
        <ele>658.8</ele>
        <time>2011-04-19T10:53:25Z</time>
      </trkpt>
      <trkpt lat="45.29792" lon="5.65437">
        <ele>658.9</ele>
        <time>2011-04-19T10:53:26Z</time>
      </trkpt>
      <trkpt lat="45.29779" lon="5.65429">
        <ele>661.7</ele>
        <time>2011-04-19T10:53:35Z</time>
      </trkpt>
      <trkpt lat="45.2977" lon="5.65429">
        <ele>663</ele>
        <time>2011-04-19T10:53:40Z</time>
      </trkpt>
      <trkpt lat="45.29764" lon="5.65436">
        <ele>664.6</ele>
        <time>2011-04-19T10:53:45Z</time>
      </trkpt>
      <trkpt lat="45.29759" lon="5.65446">
        <ele>665.5</ele>
        <time>2011-04-19T10:53:51Z</time>
      </trkpt>
      <trkpt lat="45.29756" lon="5.65457">
        <ele>666.4</ele>
        <time>2011-04-19T10:53:57Z</time>
      </trkpt>
      <trkpt lat="45.29752" lon="5.65467">
        <ele>666.9</ele>
        <time>2011-04-19T10:54:03Z</time>
      </trkpt>
      <trkpt lat="45.29749" lon="5.65479">
        <ele>668.4</ele>
        <time>2011-04-19T10:54:09Z</time>
      </trkpt>
      <trkpt lat="45.29747" lon="5.65491">
        <ele>668.8</ele>
        <time>2011-04-19T10:54:15Z</time>
      </trkpt>
      <trkpt lat="45.29744" lon="5.65502">
        <ele>670.3</ele>
        <time>2011-04-19T10:54:21Z</time>
      </trkpt>
      <trkpt lat="45.29742" lon="5.65514">
        <ele>671.8</ele>
        <time>2011-04-19T10:54:27Z</time>
      </trkpt>
      <trkpt lat="45.29742" lon="5.65516">
        <ele>671.8</ele>
        <time>2011-04-19T10:54:28Z</time>
      </trkpt>
      <trkpt lat="45.29738" lon="5.65539">
        <ele>674.5</ele>
        <time>2011-04-19T10:54:48Z</time>
      </trkpt>
      <trkpt lat="45.29741" lon="5.6555">
        <ele>675.1</ele>
        <time>2011-04-19T10:55:32Z</time>
      </trkpt>
      <trkpt lat="45.29741" lon="5.65551">
        <ele>674.9</ele>
        <time>2011-04-19T10:55:33Z</time>
      </trkpt>
      <trkpt lat="45.29736" lon="5.65539">
        <ele>677</ele>
        <time>2011-04-19T11:01:25Z</time>
      </trkpt>
      <trkpt lat="45.29724" lon="5.65552">
        <ele>676</ele>
        <time>2011-04-19T11:01:55Z</time>
      </trkpt>
      <trkpt lat="45.29719" lon="5.65553">
        <ele>675.9</ele>
        <time>2011-04-19T11:01:57Z</time>
      </trkpt>
      <trkpt lat="45.29712" lon="5.65555">
        <ele>675</ele>
        <time>2011-04-19T11:01:59Z</time>
      </trkpt>
      <trkpt lat="45.29704" lon="5.6556">
        <ele>674.1</ele>
        <time>2011-04-19T11:02:02Z</time>
      </trkpt>
      <trkpt lat="45.29697" lon="5.65564">
        <ele>673</ele>
        <time>2011-04-19T11:02:05Z</time>
      </trkpt>
      <trkpt lat="45.29692" lon="5.65568">
        <ele>672.3</ele>
        <time>2011-04-19T11:02:07Z</time>
      </trkpt>
      <trkpt lat="45.29688" lon="5.6557">
        <ele>671.9</ele>
        <time>2011-04-19T11:02:08Z</time>
      </trkpt>
      <trkpt lat="45.29683" lon="5.65572">
        <ele>671.7</ele>
        <time>2011-04-19T11:02:09Z</time>
      </trkpt>
      <trkpt lat="45.29677" lon="5.65574">
        <ele>671</ele>
        <time>2011-04-19T11:02:10Z</time>
      </trkpt>
      <trkpt lat="45.29671" lon="5.65575">
        <ele>670.5</ele>
        <time>2011-04-19T11:02:11Z</time>
      </trkpt>
      <trkpt lat="45.29664" lon="5.65576">
        <ele>670.1</ele>
        <time>2011-04-19T11:02:12Z</time>
      </trkpt>
      <trkpt lat="45.29658" lon="5.65576">
        <ele>668.9</ele>
        <time>2011-04-19T11:02:13Z</time>
      </trkpt>
      <trkpt lat="45.29652" lon="5.65572">
        <ele>668</ele>
        <time>2011-04-19T11:02:14Z</time>
      </trkpt>
      <trkpt lat="45.29646" lon="5.65566">
        <ele>667.3</ele>
        <time>2011-04-19T11:02:15Z</time>
      </trkpt>
      <trkpt lat="45.2964" lon="5.6556">
        <ele>666.8</ele>
        <time>2011-04-19T11:02:16Z</time>
      </trkpt>
      <trkpt lat="45.29637" lon="5.65554">
        <ele>664.5</ele>
        <time>2011-04-19T11:02:17Z</time>
      </trkpt>
      <trkpt lat="45.29631" lon="5.65548">
        <ele>661.5</ele>
        <time>2011-04-19T11:02:19Z</time>
      </trkpt>
      <trkpt lat="45.29632" lon="5.65535">
        <ele>656.1</ele>
        <time>2011-04-19T11:02:23Z</time>
      </trkpt>
      <trkpt lat="45.29638" lon="5.65528">
        <ele>652.3</ele>
        <time>2011-04-19T11:02:27Z</time>
      </trkpt>
      <trkpt lat="45.29637" lon="5.65524">
        <ele>651.8</ele>
        <time>2011-04-19T11:02:28Z</time>
      </trkpt>
      <trkpt lat="45.29629" lon="5.65514">
        <ele>648.5</ele>
        <time>2011-04-19T11:02:31Z</time>
      </trkpt>
      <trkpt lat="45.29626" lon="5.65507">
        <ele>645.7</ele>
        <time>2011-04-19T11:02:33Z</time>
      </trkpt>
      <trkpt lat="45.29622" lon="5.65498">
        <ele>644.1</ele>
        <time>2011-04-19T11:02:35Z</time>
      </trkpt>
      <trkpt lat="45.29616" lon="5.65489">
        <ele>641.3</ele>
        <time>2011-04-19T11:02:38Z</time>
      </trkpt>
      <trkpt lat="45.29615" lon="5.65478">
        <ele>635.3</ele>
        <time>2011-04-19T11:02:42Z</time>
      </trkpt>
      <trkpt lat="45.29615" lon="5.65468">
        <ele>629.6</ele>
        <time>2011-04-19T11:02:46Z</time>
      </trkpt>
      <trkpt lat="45.29615" lon="5.65456">
        <ele>625.7</ele>
        <time>2011-04-19T11:02:49Z</time>
      </trkpt>
      <trkpt lat="45.29613" lon="5.65444">
        <ele>622.2</ele>
        <time>2011-04-19T11:02:52Z</time>
      </trkpt>
      <trkpt lat="45.29615" lon="5.65434">
        <ele>618.1</ele>
        <time>2011-04-19T11:02:55Z</time>
      </trkpt>
      <trkpt lat="45.29614" lon="5.65423">
        <ele>614.5</ele>
        <time>2011-04-19T11:02:58Z</time>
      </trkpt>
      <trkpt lat="45.29609" lon="5.65416">
        <ele>612.4</ele>
        <time>2011-04-19T11:03:00Z</time>
      </trkpt>
      <trkpt lat="45.29602" lon="5.65411">
        <ele>609</ele>
        <time>2011-04-19T11:03:02Z</time>
      </trkpt>
      <trkpt lat="45.296" lon="5.65406">
        <ele>607.9</ele>
        <time>2011-04-19T11:03:03Z</time>
      </trkpt>
      <trkpt lat="45.29597" lon="5.654">
        <ele>606.1</ele>
        <time>2011-04-19T11:03:04Z</time>
      </trkpt>
      <trkpt lat="45.29594" lon="5.65394">
        <ele>604.7</ele>
        <time>2011-04-19T11:03:05Z</time>
      </trkpt>
      <trkpt lat="45.29591" lon="5.65387">
        <ele>603.7</ele>
        <time>2011-04-19T11:03:06Z</time>
      </trkpt>
      <trkpt lat="45.29589" lon="5.65381">
        <ele>601.6</ele>
        <time>2011-04-19T11:03:07Z</time>
      </trkpt>
      <trkpt lat="45.29586" lon="5.65375">
        <ele>600</ele>
        <time>2011-04-19T11:03:08Z</time>
      </trkpt>
      <trkpt lat="45.29583" lon="5.65369">
        <ele>598.8</ele>
        <time>2011-04-19T11:03:09Z</time>
      </trkpt>
      <trkpt lat="45.29581" lon="5.65363">
        <ele>597.9</ele>
        <time>2011-04-19T11:03:10Z</time>
      </trkpt>
      <trkpt lat="45.29577" lon="5.65352">
        <ele>594.4</ele>
        <time>2011-04-19T11:03:12Z</time>
      </trkpt>
      <trkpt lat="45.29574" lon="5.65345">
        <ele>592.1</ele>
        <time>2011-04-19T11:03:14Z</time>
      </trkpt>
      <trkpt lat="45.2957" lon="5.65338">
        <ele>590.7</ele>
        <time>2011-04-19T11:03:16Z</time>
      </trkpt>
      <trkpt lat="45.29566" lon="5.6533">
        <ele>587.2</ele>
        <time>2011-04-19T11:03:18Z</time>
      </trkpt>
      <trkpt lat="45.29562" lon="5.65321">
        <ele>584.6</ele>
        <time>2011-04-19T11:03:20Z</time>
      </trkpt>
      <trkpt lat="45.29556" lon="5.65313">
        <ele>582.6</ele>
        <time>2011-04-19T11:03:22Z</time>
      </trkpt>
      <trkpt lat="45.29551" lon="5.65304">
        <ele>576.8</ele>
        <time>2011-04-19T11:03:26Z</time>
      </trkpt>
      <trkpt lat="45.29546" lon="5.65297">
        <ele>575.6</ele>
        <time>2011-04-19T11:03:28Z</time>
      </trkpt>
      <trkpt lat="45.29544" lon="5.65293">
        <ele>575.2</ele>
        <time>2011-04-19T11:03:29Z</time>
      </trkpt>
      <trkpt lat="45.2954" lon="5.65276">
        <ele>570.7</ele>
        <time>2011-04-19T11:03:33Z</time>
      </trkpt>
      <trkpt lat="45.29538" lon="5.65267">
        <ele>569</ele>
        <time>2011-04-19T11:03:35Z</time>
      </trkpt>
      <trkpt lat="45.29535" lon="5.65256">
        <ele>567.1</ele>
        <time>2011-04-19T11:03:37Z</time>
      </trkpt>
      <trkpt lat="45.29533" lon="5.65247">
        <ele>564.7</ele>
        <time>2011-04-19T11:03:39Z</time>
      </trkpt>
      <trkpt lat="45.29532" lon="5.65237">
        <ele>561.2</ele>
        <time>2011-04-19T11:03:42Z</time>
      </trkpt>
      <trkpt lat="45.29531" lon="5.65229">
        <ele>559.7</ele>
        <time>2011-04-19T11:03:44Z</time>
      </trkpt>
      <trkpt lat="45.29532" lon="5.65218">
        <ele>557.3</ele>
        <time>2011-04-19T11:03:46Z</time>
      </trkpt>
      <trkpt lat="45.29535" lon="5.65208">
        <ele>554.6</ele>
        <time>2011-04-19T11:03:49Z</time>
      </trkpt>
      <trkpt lat="45.29541" lon="5.65201">
        <ele>551.2</ele>
        <time>2011-04-19T11:03:52Z</time>
      </trkpt>
      <trkpt lat="45.29546" lon="5.65194">
        <ele>548.9</ele>
        <time>2011-04-19T11:03:54Z</time>
      </trkpt>
      <trkpt lat="45.29551" lon="5.65185">
        <ele>545.9</ele>
        <time>2011-04-19T11:03:56Z</time>
      </trkpt>
      <trkpt lat="45.29558" lon="5.65177">
        <ele>543.2</ele>
        <time>2011-04-19T11:03:58Z</time>
      </trkpt>
      <trkpt lat="45.29565" lon="5.65171">
        <ele>540.8</ele>
        <time>2011-04-19T11:04:00Z</time>
      </trkpt>
      <trkpt lat="45.29571" lon="5.65161">
        <ele>533.4</ele>
        <time>2011-04-19T11:04:14Z</time>
      </trkpt>
      <trkpt lat="45.29578" lon="5.65154">
        <ele>531.7</ele>
        <time>2011-04-19T11:05:31Z</time>
      </trkpt>
      <trkpt lat="45.29579" lon="5.65154">
        <ele>531.7</ele>
        <time>2011-04-19T11:05:32Z</time>
      </trkpt>
      <trkpt lat="45.29588" lon="5.65142">
        <ele>528.9</ele>
        <time>2011-04-19T11:05:39Z</time>
      </trkpt>
      <trkpt lat="45.29591" lon="5.65132">
        <ele>526.8</ele>
        <time>2011-04-19T11:05:42Z</time>
      </trkpt>
      <trkpt lat="45.29596" lon="5.65125">
        <ele>525.3</ele>
        <time>2011-04-19T11:05:44Z</time>
      </trkpt>
      <trkpt lat="45.29602" lon="5.65118">
        <ele>523.4</ele>
        <time>2011-04-19T11:05:46Z</time>
      </trkpt>
      <trkpt lat="45.29604" lon="5.65112">
        <ele>522.3</ele>
        <time>2011-04-19T11:05:47Z</time>
      </trkpt>
      <trkpt lat="45.29606" lon="5.65104">
        <ele>521.5</ele>
        <time>2011-04-19T11:05:48Z</time>
      </trkpt>
      <trkpt lat="45.29607" lon="5.65096">
        <ele>520.2</ele>
        <time>2011-04-19T11:05:49Z</time>
      </trkpt>
      <trkpt lat="45.29609" lon="5.65084">
        <ele>518.4</ele>
        <time>2011-04-19T11:05:51Z</time>
      </trkpt>
      <trkpt lat="45.2961" lon="5.65073">
        <ele>516</ele>
        <time>2011-04-19T11:05:53Z</time>
      </trkpt>
      <trkpt lat="45.29606" lon="5.65062">
        <ele>514.7</ele>
        <time>2011-04-19T11:05:55Z</time>
      </trkpt>
      <trkpt lat="45.29604" lon="5.65056">
        <ele>513.9</ele>
        <time>2011-04-19T11:05:56Z</time>
      </trkpt>
      <trkpt lat="45.29602" lon="5.65047">
        <ele>513.3</ele>
        <time>2011-04-19T11:05:57Z</time>
      </trkpt>
      <trkpt lat="45.296" lon="5.65038">
        <ele>512.8</ele>
        <time>2011-04-19T11:05:58Z</time>
      </trkpt>
      <trkpt lat="45.29599" lon="5.65029">
        <ele>512</ele>
        <time>2011-04-19T11:05:59Z</time>
      </trkpt>
      <trkpt lat="45.29597" lon="5.6502">
        <ele>511.4</ele>
        <time>2011-04-19T11:06:00Z</time>
      </trkpt>
      <trkpt lat="45.29596" lon="5.65011">
        <ele>510.9</ele>
        <time>2011-04-19T11:06:01Z</time>
      </trkpt>
      <trkpt lat="45.29595" lon="5.65003">
        <ele>509.1</ele>
        <time>2011-04-19T11:06:02Z</time>
      </trkpt>
      <trkpt lat="45.29594" lon="5.64996">
        <ele>507.7</ele>
        <time>2011-04-19T11:06:03Z</time>
      </trkpt>
      <trkpt lat="45.29593" lon="5.64989">
        <ele>506.7</ele>
        <time>2011-04-19T11:06:04Z</time>
      </trkpt>
      <trkpt lat="45.29591" lon="5.64982">
        <ele>505.5</ele>
        <time>2011-04-19T11:06:05Z</time>
      </trkpt>
      <trkpt lat="45.29589" lon="5.6497">
        <ele>504</ele>
        <time>2011-04-19T11:06:07Z</time>
      </trkpt>
      <trkpt lat="45.29586" lon="5.64959">
        <ele>502.7</ele>
        <time>2011-04-19T11:06:09Z</time>
      </trkpt>
      <trkpt lat="45.29583" lon="5.6495">
        <ele>500.9</ele>
        <time>2011-04-19T11:06:11Z</time>
      </trkpt>
      <trkpt lat="45.29577" lon="5.64941">
        <ele>499.2</ele>
        <time>2011-04-19T11:06:13Z</time>
      </trkpt>
      <trkpt lat="45.2957" lon="5.64935">
        <ele>497</ele>
        <time>2011-04-19T11:06:15Z</time>
      </trkpt>
      <trkpt lat="45.29562" lon="5.6493">
        <ele>494.8</ele>
        <time>2011-04-19T11:06:17Z</time>
      </trkpt>
      <trkpt lat="45.29555" lon="5.64924">
        <ele>492.2</ele>
        <time>2011-04-19T11:06:19Z</time>
      </trkpt>
      <trkpt lat="45.29549" lon="5.64916">
        <ele>489.6</ele>
        <time>2011-04-19T11:06:21Z</time>
      </trkpt>
      <trkpt lat="45.29541" lon="5.6491">
        <ele>486.3</ele>
        <time>2011-04-19T11:06:24Z</time>
      </trkpt>
      <trkpt lat="45.29539" lon="5.64902">
        <ele>482.1</ele>
        <time>2011-04-19T11:06:58Z</time>
      </trkpt>
      <trkpt lat="45.29536" lon="5.64899">
        <ele>481.9</ele>
        <time>2011-04-19T11:06:59Z</time>
      </trkpt>
      <trkpt lat="45.29529" lon="5.64889">
        <ele>481.5</ele>
        <time>2011-04-19T11:07:01Z</time>
      </trkpt>
      <trkpt lat="45.29527" lon="5.6488">
        <ele>480.1</ele>
        <time>2011-04-19T11:07:02Z</time>
      </trkpt>
      <trkpt lat="45.29525" lon="5.6487">
        <ele>479.1</ele>
        <time>2011-04-19T11:07:03Z</time>
      </trkpt>
      <trkpt lat="45.29524" lon="5.64859">
        <ele>478.3</ele>
        <time>2011-04-19T11:07:04Z</time>
      </trkpt>
      <trkpt lat="45.29523" lon="5.64848">
        <ele>476.2</ele>
        <time>2011-04-19T11:07:05Z</time>
      </trkpt>
      <trkpt lat="45.29521" lon="5.64836">
        <ele>474.7</ele>
        <time>2011-04-19T11:07:06Z</time>
      </trkpt>
      <trkpt lat="45.2952" lon="5.64824">
        <ele>473.5</ele>
        <time>2011-04-19T11:07:07Z</time>
      </trkpt>
      <trkpt lat="45.29519" lon="5.64811">
        <ele>472.7</ele>
        <time>2011-04-19T11:07:08Z</time>
      </trkpt>
      <trkpt lat="45.29517" lon="5.64796">
        <ele>470.2</ele>
        <time>2011-04-19T11:07:09Z</time>
      </trkpt>
      <trkpt lat="45.29515" lon="5.64783">
        <ele>468.3</ele>
        <time>2011-04-19T11:07:10Z</time>
      </trkpt>
      <trkpt lat="45.29513" lon="5.64771">
        <ele>466.9</ele>
        <time>2011-04-19T11:07:11Z</time>
      </trkpt>
      <trkpt lat="45.29512" lon="5.64759">
        <ele>464.2</ele>
        <time>2011-04-19T11:07:12Z</time>
      </trkpt>
      <trkpt lat="45.29509" lon="5.64746">
        <ele>462.2</ele>
        <time>2011-04-19T11:07:13Z</time>
      </trkpt>
      <trkpt lat="45.29506" lon="5.64734">
        <ele>460.6</ele>
        <time>2011-04-19T11:07:14Z</time>
      </trkpt>
      <trkpt lat="45.29503" lon="5.64724">
        <ele>458.9</ele>
        <time>2011-04-19T11:07:15Z</time>
      </trkpt>
      <trkpt lat="45.295" lon="5.64717">
        <ele>457.5</ele>
        <time>2011-04-19T11:07:16Z</time>
      </trkpt>
      <trkpt lat="45.29495" lon="5.64706">
        <ele>454.1</ele>
        <time>2011-04-19T11:07:24Z</time>
      </trkpt>
      <trkpt lat="45.29492" lon="5.64695">
        <ele>453.8</ele>
        <time>2011-04-19T11:07:46Z</time>
      </trkpt>
      <trkpt lat="45.29488" lon="5.64687">
        <ele>453.6</ele>
        <time>2011-04-19T11:07:50Z</time>
      </trkpt>
      <trkpt lat="45.29486" lon="5.64675">
        <ele>452.5</ele>
        <time>2011-04-19T11:07:53Z</time>
      </trkpt>
      <trkpt lat="45.29479" lon="5.64681">
        <ele>448.2</ele>
        <time>2011-04-19T11:07:59Z</time>
      </trkpt>
      <trkpt lat="45.29478" lon="5.64684">
        <ele>447.1</ele>
        <time>2011-04-19T11:08:00Z</time>
      </trkpt>
      <trkpt lat="45.29477" lon="5.64698">
        <ele>444.9</ele>
        <time>2011-04-19T11:08:03Z</time>
      </trkpt>
      <trkpt lat="45.29477" lon="5.64706">
        <ele>443.8</ele>
        <time>2011-04-19T11:08:05Z</time>
      </trkpt>
      <trkpt lat="45.29477" lon="5.64719">
        <ele>442.5</ele>
        <time>2011-04-19T11:08:09Z</time>
      </trkpt>
      <trkpt lat="45.29475" lon="5.64732">
        <ele>441.8</ele>
        <time>2011-04-19T11:08:23Z</time>
      </trkpt>
      <trkpt lat="45.29472" lon="5.64743">
        <ele>441.4</ele>
        <time>2011-04-19T11:09:50Z</time>
      </trkpt>
      <trkpt lat="45.29472" lon="5.64744">
        <ele>441.5</ele>
        <time>2011-04-19T11:09:51Z</time>
      </trkpt>
      <trkpt lat="45.29465" lon="5.64766">
        <ele>441</ele>
        <time>2011-04-19T11:10:46Z</time>
      </trkpt>
      <trkpt lat="45.2946" lon="5.64775">
        <ele>440.2</ele>
        <time>2011-04-19T11:10:58Z</time>
      </trkpt>
      <trkpt lat="45.29457" lon="5.64777">
        <ele>439.9</ele>
        <time>2011-04-19T11:10:59Z</time>
      </trkpt>
      <trkpt lat="45.29446" lon="5.64786">
        <ele>439.1</ele>
        <time>2011-04-19T11:11:04Z</time>
      </trkpt>
      <trkpt lat="45.29438" lon="5.64787">
        <ele>437</ele>
        <time>2011-04-19T11:11:09Z</time>
      </trkpt>
      <trkpt lat="45.29432" lon="5.64793">
        <ele>432</ele>
        <time>2011-04-19T11:11:17Z</time>
      </trkpt>
      <trkpt lat="45.29427" lon="5.64803">
        <ele>429.8</ele>
        <time>2011-04-19T11:11:22Z</time>
      </trkpt>
      <trkpt lat="45.29422" lon="5.64813">
        <ele>428.2</ele>
        <time>2011-04-19T11:11:26Z</time>
      </trkpt>
      <trkpt lat="45.2942" lon="5.64826">
        <ele>423.8</ele>
        <time>2011-04-19T11:11:32Z</time>
      </trkpt>
      <trkpt lat="45.29414" lon="5.64834">
        <ele>421.7</ele>
        <time>2011-04-19T11:11:49Z</time>
      </trkpt>
      <trkpt lat="45.29411" lon="5.64845">
        <ele>420.2</ele>
        <time>2011-04-19T11:11:57Z</time>
      </trkpt>
      <trkpt lat="45.29409" lon="5.64855">
        <ele>419.2</ele>
        <time>2011-04-19T11:11:59Z</time>
      </trkpt>
      <trkpt lat="45.29409" lon="5.64859">
        <ele>418.9</ele>
        <time>2011-04-19T11:12:00Z</time>
      </trkpt>
      <trkpt lat="45.29411" lon="5.64879">
        <ele>415.8</ele>
        <time>2011-04-19T11:12:08Z</time>
      </trkpt>
      <trkpt lat="45.29407" lon="5.6489">
        <ele>417.1</ele>
        <time>2011-04-19T11:12:18Z</time>
      </trkpt>
      <trkpt lat="45.29399" lon="5.64894">
        <ele>417.5</ele>
        <time>2011-04-19T11:12:27Z</time>
      </trkpt>
      <trkpt lat="45.29394" lon="5.64887">
        <ele>417.8</ele>
        <time>2011-04-19T11:12:32Z</time>
      </trkpt>
      <trkpt lat="45.2939" lon="5.6488">
        <ele>417.4</ele>
        <time>2011-04-19T11:12:35Z</time>
      </trkpt>
      <trkpt lat="45.29385" lon="5.64871">
        <ele>416.8</ele>
        <time>2011-04-19T11:12:38Z</time>
      </trkpt>
      <trkpt lat="45.2938" lon="5.64864">
        <ele>416.8</ele>
        <time>2011-04-19T11:12:40Z</time>
      </trkpt>
      <trkpt lat="45.29374" lon="5.64855">
        <ele>416.4</ele>
        <time>2011-04-19T11:12:43Z</time>
      </trkpt>
      <trkpt lat="45.2937" lon="5.64847">
        <ele>416.5</ele>
        <time>2011-04-19T11:12:45Z</time>
      </trkpt>
      <trkpt lat="45.29369" lon="5.6484">
        <ele>416.7</ele>
        <time>2011-04-19T11:12:46Z</time>
      </trkpt>
      <trkpt lat="45.29365" lon="5.64832">
        <ele>415.9</ele>
        <time>2011-04-19T11:12:48Z</time>
      </trkpt>
      <trkpt lat="45.29361" lon="5.64827">
        <ele>414.6</ele>
        <time>2011-04-19T11:12:50Z</time>
      </trkpt>
      <trkpt lat="45.29354" lon="5.64822">
        <ele>414.3</ele>
        <time>2011-04-19T11:12:52Z</time>
      </trkpt>
      <trkpt lat="45.29346" lon="5.64816">
        <ele>414.1</ele>
        <time>2011-04-19T11:12:54Z</time>
      </trkpt>
      <trkpt lat="45.29342" lon="5.64813">
        <ele>413.5</ele>
        <time>2011-04-19T11:12:55Z</time>
      </trkpt>
      <trkpt lat="45.29333" lon="5.6481">
        <ele>412.8</ele>
        <time>2011-04-19T11:12:57Z</time>
      </trkpt>
      <trkpt lat="45.29328" lon="5.64809">
        <ele>412.8</ele>
        <time>2011-04-19T11:12:58Z</time>
      </trkpt>
      <trkpt lat="45.29323" lon="5.64809">
        <ele>412.8</ele>
        <time>2011-04-19T11:12:59Z</time>
      </trkpt>
      <trkpt lat="45.29318" lon="5.64809">
        <ele>412.8</ele>
        <time>2011-04-19T11:13:00Z</time>
      </trkpt>
      <trkpt lat="45.29312" lon="5.64808">
        <ele>411.7</ele>
        <time>2011-04-19T11:13:01Z</time>
      </trkpt>
      <trkpt lat="45.29308" lon="5.64806">
        <ele>410.9</ele>
        <time>2011-04-19T11:13:02Z</time>
      </trkpt>
      <trkpt lat="45.293" lon="5.64801">
        <ele>409.2</ele>
        <time>2011-04-19T11:13:04Z</time>
      </trkpt>
      <trkpt lat="45.29294" lon="5.64796">
        <ele>407.8</ele>
        <time>2011-04-19T11:13:06Z</time>
      </trkpt>
      <trkpt lat="45.29288" lon="5.64791">
        <ele>406.5</ele>
        <time>2011-04-19T11:13:08Z</time>
      </trkpt>
      <trkpt lat="45.2928" lon="5.64784">
        <ele>404.9</ele>
        <time>2011-04-19T11:13:10Z</time>
      </trkpt>
      <trkpt lat="45.29273" lon="5.64779">
        <ele>403.5</ele>
        <time>2011-04-19T11:13:12Z</time>
      </trkpt>
      <trkpt lat="45.29267" lon="5.64773">
        <ele>401.2</ele>
        <time>2011-04-19T11:13:14Z</time>
      </trkpt>
      <trkpt lat="45.29261" lon="5.64767">
        <ele>398.9</ele>
        <time>2011-04-19T11:13:16Z</time>
      </trkpt>
      <trkpt lat="45.29255" lon="5.64761">
        <ele>395.3</ele>
        <time>2011-04-19T11:13:19Z</time>
      </trkpt>
      <trkpt lat="45.29247" lon="5.64764">
        <ele>390.3</ele>
        <time>2011-04-19T11:13:32Z</time>
      </trkpt>
      <trkpt lat="45.29245" lon="5.64776">
        <ele>390.6</ele>
        <time>2011-04-19T11:13:39Z</time>
      </trkpt>
      <trkpt lat="45.29243" lon="5.64785">
        <ele>391.1</ele>
        <time>2011-04-19T11:13:42Z</time>
      </trkpt>
      <trkpt lat="45.29239" lon="5.64796">
        <ele>390.9</ele>
        <time>2011-04-19T11:13:45Z</time>
      </trkpt>
      <trkpt lat="45.29236" lon="5.64806">
        <ele>391.1</ele>
        <time>2011-04-19T11:13:48Z</time>
      </trkpt>
      <trkpt lat="45.29234" lon="5.64817">
        <ele>391.9</ele>
        <time>2011-04-19T11:13:51Z</time>
      </trkpt>
      <trkpt lat="45.2923" lon="5.64826">
        <ele>393.4</ele>
        <time>2011-04-19T11:13:55Z</time>
      </trkpt>
      <trkpt lat="45.29226" lon="5.64836">
        <ele>395.2</ele>
        <time>2011-04-19T11:13:59Z</time>
      </trkpt>
      <trkpt lat="45.29224" lon="5.64847">
        <ele>397.5</ele>
        <time>2011-04-19T11:14:04Z</time>
      </trkpt>
      <trkpt lat="45.29224" lon="5.6485">
        <ele>398</ele>
        <time>2011-04-19T11:14:05Z</time>
      </trkpt>
      <trkpt lat="45.2922" lon="5.64868">
        <ele>399</ele>
        <time>2011-04-19T11:14:12Z</time>
      </trkpt>
      <trkpt lat="45.29217" lon="5.64879">
        <ele>398.6</ele>
        <time>2011-04-19T11:14:18Z</time>
      </trkpt>
      <trkpt lat="45.29212" lon="5.6489">
        <ele>398</ele>
        <time>2011-04-19T11:14:26Z</time>
      </trkpt>
      <trkpt lat="45.29209" lon="5.64901">
        <ele>398</ele>
        <time>2011-04-19T11:14:37Z</time>
      </trkpt>
      <trkpt lat="45.29209" lon="5.64913">
        <ele>397.5</ele>
        <time>2011-04-19T11:14:43Z</time>
      </trkpt>
      <trkpt lat="45.29209" lon="5.64925">
        <ele>397.6</ele>
        <time>2011-04-19T11:14:48Z</time>
      </trkpt>
      <trkpt lat="45.29209" lon="5.64937">
        <ele>399.8</ele>
        <time>2011-04-19T11:14:53Z</time>
      </trkpt>
      <trkpt lat="45.29207" lon="5.64949">
        <ele>402.6</ele>
        <time>2011-04-19T11:14:59Z</time>
      </trkpt>
      <trkpt lat="45.29201" lon="5.64942">
        <ele>404.7</ele>
        <time>2011-04-19T11:15:12Z</time>
      </trkpt>
      <trkpt lat="45.292" lon="5.6494">
        <ele>404.6</ele>
        <time>2011-04-19T11:15:13Z</time>
      </trkpt>
      <trkpt lat="45.29193" lon="5.64923">
        <ele>404.8</ele>
        <time>2011-04-19T11:15:23Z</time>
      </trkpt>
      <trkpt lat="45.29191" lon="5.64911">
        <ele>405.2</ele>
        <time>2011-04-19T11:15:26Z</time>
      </trkpt>
      <trkpt lat="45.2919" lon="5.64902">
        <ele>404.7</ele>
        <time>2011-04-19T11:15:28Z</time>
      </trkpt>
      <trkpt lat="45.2919" lon="5.6489">
        <ele>404.4</ele>
        <time>2011-04-19T11:15:31Z</time>
      </trkpt>
      <trkpt lat="45.2919" lon="5.6488">
        <ele>403.5</ele>
        <time>2011-04-19T11:15:33Z</time>
      </trkpt>
      <trkpt lat="45.29191" lon="5.6487">
        <ele>402.3</ele>
        <time>2011-04-19T11:15:35Z</time>
      </trkpt>
      <trkpt lat="45.29188" lon="5.6486">
        <ele>401</ele>
        <time>2011-04-19T11:15:37Z</time>
      </trkpt>
      <trkpt lat="45.29184" lon="5.64851">
        <ele>400.8</ele>
        <time>2011-04-19T11:15:40Z</time>
      </trkpt>
      <trkpt lat="45.29178" lon="5.64844">
        <ele>401.2</ele>
        <time>2011-04-19T11:15:43Z</time>
      </trkpt>
      <trkpt lat="45.29171" lon="5.64846">
        <ele>400.1</ele>
        <time>2011-04-19T11:15:46Z</time>
      </trkpt>
      <trkpt lat="45.29164" lon="5.64854">
        <ele>400.6</ele>
        <time>2011-04-19T11:15:51Z</time>
      </trkpt>
      <trkpt lat="45.29158" lon="5.64864">
        <ele>402.8</ele>
        <time>2011-04-19T11:15:58Z</time>
      </trkpt>
      <trkpt lat="45.29152" lon="5.64872">
        <ele>404.7</ele>
        <time>2011-04-19T11:16:11Z</time>
      </trkpt>
      <trkpt lat="45.29147" lon="5.64881">
        <ele>407.2</ele>
        <time>2011-04-19T11:16:23Z</time>
      </trkpt>
      <trkpt lat="45.29146" lon="5.64882">
        <ele>407.3</ele>
        <time>2011-04-19T11:16:24Z</time>
      </trkpt>
      <trkpt lat="45.29136" lon="5.64898">
        <ele>410.9</ele>
        <time>2011-04-19T11:16:44Z</time>
      </trkpt>
      <trkpt lat="45.29132" lon="5.64907">
        <ele>411</ele>
        <time>2011-04-19T11:16:48Z</time>
      </trkpt>
      <trkpt lat="45.29127" lon="5.64917">
        <ele>411.3</ele>
        <time>2011-04-19T11:16:51Z</time>
      </trkpt>
      <trkpt lat="45.29125" lon="5.64928">
        <ele>410.2</ele>
        <time>2011-04-19T11:16:55Z</time>
      </trkpt>
      <trkpt lat="45.29121" lon="5.64938">
        <ele>411.3</ele>
        <time>2011-04-19T11:17:00Z</time>
      </trkpt>
      <trkpt lat="45.29117" lon="5.64949">
        <ele>413.5</ele>
        <time>2011-04-19T11:17:07Z</time>
      </trkpt>
      <trkpt lat="45.29111" lon="5.64954">
        <ele>414.1</ele>
        <time>2011-04-19T11:17:12Z</time>
      </trkpt>
      <trkpt lat="45.29105" lon="5.64953">
        <ele>414.1</ele>
        <time>2011-04-19T11:17:14Z</time>
      </trkpt>
      <trkpt lat="45.29097" lon="5.64948">
        <ele>412.8</ele>
        <time>2011-04-19T11:17:17Z</time>
      </trkpt>
      <trkpt lat="45.29092" lon="5.64944">
        <ele>412.8</ele>
        <time>2011-04-19T11:17:20Z</time>
      </trkpt>
      <trkpt lat="45.29084" lon="5.64942">
        <ele>412.6</ele>
        <time>2011-04-19T11:17:22Z</time>
      </trkpt>
      <trkpt lat="45.2908" lon="5.64941">
        <ele>412.6</ele>
        <time>2011-04-19T11:17:23Z</time>
      </trkpt>
      <trkpt lat="45.29074" lon="5.64941">
        <ele>412.2</ele>
        <time>2011-04-19T11:17:24Z</time>
      </trkpt>
      <trkpt lat="45.29068" lon="5.64941">
        <ele>411.9</ele>
        <time>2011-04-19T11:17:25Z</time>
      </trkpt>
      <trkpt lat="45.29063" lon="5.64941">
        <ele>411.7</ele>
        <time>2011-04-19T11:17:26Z</time>
      </trkpt>
      <trkpt lat="45.29058" lon="5.64941">
        <ele>410.5</ele>
        <time>2011-04-19T11:17:27Z</time>
      </trkpt>
      <trkpt lat="45.29053" lon="5.64941">
        <ele>409.6</ele>
        <time>2011-04-19T11:17:28Z</time>
      </trkpt>
      <trkpt lat="45.29048" lon="5.64941">
        <ele>408.9</ele>
        <time>2011-04-19T11:17:29Z</time>
      </trkpt>
      <trkpt lat="45.2904" lon="5.64939">
        <ele>407.1</ele>
        <time>2011-04-19T11:17:31Z</time>
      </trkpt>
      <trkpt lat="45.29031" lon="5.64935">
        <ele>405.3</ele>
        <time>2011-04-19T11:17:33Z</time>
      </trkpt>
      <trkpt lat="45.29025" lon="5.64931">
        <ele>402.9</ele>
        <time>2011-04-19T11:17:35Z</time>
      </trkpt>
      <trkpt lat="45.2902" lon="5.64922">
        <ele>400.9</ele>
        <time>2011-04-19T11:17:37Z</time>
      </trkpt>
      <trkpt lat="45.29017" lon="5.64918">
        <ele>399.9</ele>
        <time>2011-04-19T11:17:38Z</time>
      </trkpt>
      <trkpt lat="45.29011" lon="5.64908">
        <ele>397</ele>
        <time>2011-04-19T11:17:40Z</time>
      </trkpt>
      <trkpt lat="45.29006" lon="5.64901">
        <ele>394.1</ele>
        <time>2011-04-19T11:17:42Z</time>
      </trkpt>
      <trkpt lat="45.29001" lon="5.64896">
        <ele>391.1</ele>
        <time>2011-04-19T11:17:44Z</time>
      </trkpt>
      <trkpt lat="45.28996" lon="5.64891">
        <ele>388.3</ele>
        <time>2011-04-19T11:17:46Z</time>
      </trkpt>
      <trkpt lat="45.28989" lon="5.6489">
        <ele>386</ele>
        <time>2011-04-19T11:17:48Z</time>
      </trkpt>
      <trkpt lat="45.2898" lon="5.64893">
        <ele>381.2</ele>
        <time>2011-04-19T11:17:54Z</time>
      </trkpt>
      <trkpt lat="45.28973" lon="5.64885">
        <ele>376.8</ele>
        <time>2011-04-19T11:18:09Z</time>
      </trkpt>
      <trkpt lat="45.2897" lon="5.64875">
        <ele>373.3</ele>
        <time>2011-04-19T11:20:46Z</time>
      </trkpt>
      <trkpt lat="45.2897" lon="5.64873">
        <ele>372.9</ele>
        <time>2011-04-19T11:20:47Z</time>
      </trkpt>
      <trkpt lat="45.28978" lon="5.64855">
        <ele>364.8</ele>
        <time>2011-04-19T11:21:13Z</time>
      </trkpt>
      <trkpt lat="45.28985" lon="5.6485">
        <ele>363.8</ele>
        <time>2011-04-19T11:21:16Z</time>
      </trkpt>
      <trkpt lat="45.28992" lon="5.64844">
        <ele>363.1</ele>
        <time>2011-04-19T11:21:18Z</time>
      </trkpt>
      <trkpt lat="45.29" lon="5.6484">
        <ele>360.3</ele>
        <time>2011-04-19T11:21:20Z</time>
      </trkpt>
      <trkpt lat="45.29005" lon="5.6484">
        <ele>359.4</ele>
        <time>2011-04-19T11:21:21Z</time>
      </trkpt>
      <trkpt lat="45.29013" lon="5.64842">
        <ele>356.3</ele>
        <time>2011-04-19T11:21:23Z</time>
      </trkpt>
      <trkpt lat="45.29019" lon="5.64849">
        <ele>353.4</ele>
        <time>2011-04-19T11:21:25Z</time>
      </trkpt>
      <trkpt lat="45.29025" lon="5.64851">
        <ele>351</ele>
        <time>2011-04-19T11:21:27Z</time>
      </trkpt>
      <trkpt lat="45.29033" lon="5.64844">
        <ele>348.9</ele>
        <time>2011-04-19T11:21:29Z</time>
      </trkpt>
      <trkpt lat="45.29041" lon="5.64841">
        <ele>347.2</ele>
        <time>2011-04-19T11:21:31Z</time>
      </trkpt>
      <trkpt lat="45.29048" lon="5.64835">
        <ele>342.5</ele>
        <time>2011-04-19T11:21:34Z</time>
      </trkpt>
      <trkpt lat="45.2905" lon="5.64826">
        <ele>340.4</ele>
        <time>2011-04-19T11:21:36Z</time>
      </trkpt>
      <trkpt lat="45.2905" lon="5.64819">
        <ele>339.7</ele>
        <time>2011-04-19T11:21:37Z</time>
      </trkpt>
      <trkpt lat="45.2905" lon="5.64812">
        <ele>338.5</ele>
        <time>2011-04-19T11:21:38Z</time>
      </trkpt>
      <trkpt lat="45.29052" lon="5.64801">
        <ele>336.9</ele>
        <time>2011-04-19T11:21:40Z</time>
      </trkpt>
      <trkpt lat="45.29055" lon="5.64791">
        <ele>335.5</ele>
        <time>2011-04-19T11:21:42Z</time>
      </trkpt>
      <trkpt lat="45.29058" lon="5.64779">
        <ele>334.7</ele>
        <time>2011-04-19T11:21:44Z</time>
      </trkpt>
      <trkpt lat="45.29062" lon="5.64768">
        <ele>334.2</ele>
        <time>2011-04-19T11:21:46Z</time>
      </trkpt>
      <trkpt lat="45.29064" lon="5.64762">
        <ele>334.1</ele>
        <time>2011-04-19T11:21:47Z</time>
      </trkpt>
      <trkpt lat="45.29067" lon="5.64756">
        <ele>334.1</ele>
        <time>2011-04-19T11:21:48Z</time>
      </trkpt>
      <trkpt lat="45.2907" lon="5.64751">
        <ele>334.1</ele>
        <time>2011-04-19T11:21:49Z</time>
      </trkpt>
      <trkpt lat="45.29072" lon="5.64745">
        <ele>334.2</ele>
        <time>2011-04-19T11:21:50Z</time>
      </trkpt>
      <trkpt lat="45.29075" lon="5.64738">
        <ele>334</ele>
        <time>2011-04-19T11:21:51Z</time>
      </trkpt>
      <trkpt lat="45.29079" lon="5.64733">
        <ele>333.8</ele>
        <time>2011-04-19T11:21:52Z</time>
      </trkpt>
      <trkpt lat="45.29083" lon="5.64728">
        <ele>333.7</ele>
        <time>2011-04-19T11:21:53Z</time>
      </trkpt>
      <trkpt lat="45.29091" lon="5.64724">
        <ele>332</ele>
        <time>2011-04-19T11:21:55Z</time>
      </trkpt>
      <trkpt lat="45.29096" lon="5.64718">
        <ele>330.1</ele>
        <time>2011-04-19T11:21:57Z</time>
      </trkpt>
      <trkpt lat="45.29097" lon="5.64709">
        <ele>328.5</ele>
        <time>2011-04-19T11:21:59Z</time>
      </trkpt>
      <trkpt lat="45.29098" lon="5.64698">
        <ele>325.5</ele>
        <time>2011-04-19T11:22:01Z</time>
      </trkpt>
      <trkpt lat="45.29099" lon="5.64691">
        <ele>324.5</ele>
        <time>2011-04-19T11:22:02Z</time>
      </trkpt>
      <trkpt lat="45.29101" lon="5.64684">
        <ele>323.8</ele>
        <time>2011-04-19T11:22:03Z</time>
      </trkpt>
      <trkpt lat="45.29104" lon="5.64676">
        <ele>321.8</ele>
        <time>2011-04-19T11:22:04Z</time>
      </trkpt>
      <trkpt lat="45.29105" lon="5.64668">
        <ele>320.3</ele>
        <time>2011-04-19T11:22:05Z</time>
      </trkpt>
      <trkpt lat="45.29106" lon="5.64659">
        <ele>319.2</ele>
        <time>2011-04-19T11:22:06Z</time>
      </trkpt>
      <trkpt lat="45.29107" lon="5.64651">
        <ele>317.3</ele>
        <time>2011-04-19T11:22:07Z</time>
      </trkpt>
      <trkpt lat="45.29108" lon="5.64643">
        <ele>315.9</ele>
        <time>2011-04-19T11:22:08Z</time>
      </trkpt>
      <trkpt lat="45.29107" lon="5.64635">
        <ele>314.8</ele>
        <time>2011-04-19T11:22:09Z</time>
      </trkpt>
      <trkpt lat="45.29106" lon="5.64628">
        <ele>312.5</ele>
        <time>2011-04-19T11:22:10Z</time>
      </trkpt>
      <trkpt lat="45.29104" lon="5.6462">
        <ele>310.7</ele>
        <time>2011-04-19T11:22:11Z</time>
      </trkpt>
      <trkpt lat="45.29103" lon="5.64612">
        <ele>309.4</ele>
        <time>2011-04-19T11:22:12Z</time>
      </trkpt>
      <trkpt lat="45.29102" lon="5.64604">
        <ele>306.9</ele>
        <time>2011-04-19T11:22:13Z</time>
      </trkpt>
      <trkpt lat="45.29102" lon="5.64595">
        <ele>305</ele>
        <time>2011-04-19T11:22:14Z</time>
      </trkpt>
      <trkpt lat="45.29099" lon="5.64585">
        <ele>301.6</ele>
        <time>2011-04-19T11:22:16Z</time>
      </trkpt>
      <trkpt lat="45.29091" lon="5.6458">
        <ele>297.1</ele>
        <time>2011-04-19T11:22:22Z</time>
      </trkpt>
      <trkpt lat="45.2909" lon="5.64575">
        <ele>296.7</ele>
        <time>2011-04-19T11:22:23Z</time>
      </trkpt>
      <trkpt lat="45.29089" lon="5.64567">
        <ele>296.3</ele>
        <time>2011-04-19T11:22:24Z</time>
      </trkpt>
      <trkpt lat="45.2909" lon="5.64555">
        <ele>295</ele>
        <time>2011-04-19T11:22:26Z</time>
      </trkpt>
      <trkpt lat="45.29093" lon="5.64543">
        <ele>292.2</ele>
        <time>2011-04-19T11:22:44Z</time>
      </trkpt>
      <trkpt lat="45.2909" lon="5.64532">
        <ele>291.4</ele>
        <time>2011-04-19T11:23:33Z</time>
      </trkpt>
      <trkpt lat="45.29089" lon="5.64526">
        <ele>291.5</ele>
        <time>2011-04-19T11:23:34Z</time>
      </trkpt>
      <trkpt lat="45.29088" lon="5.64519">
        <ele>291.6</ele>
        <time>2011-04-19T11:23:35Z</time>
      </trkpt>
      <trkpt lat="45.29086" lon="5.64509">
        <ele>290.7</ele>
        <time>2011-04-19T11:23:36Z</time>
      </trkpt>
      <trkpt lat="45.29085" lon="5.64498">
        <ele>290</ele>
        <time>2011-04-19T11:23:37Z</time>
      </trkpt>
      <trkpt lat="45.29084" lon="5.64485">
        <ele>289.4</ele>
        <time>2011-04-19T11:23:38Z</time>
      </trkpt>
      <trkpt lat="45.29084" lon="5.64471">
        <ele>287.7</ele>
        <time>2011-04-19T11:23:39Z</time>
      </trkpt>
      <trkpt lat="45.29086" lon="5.64459">
        <ele>286.5</ele>
        <time>2011-04-19T11:23:40Z</time>
      </trkpt>
      <trkpt lat="45.29088" lon="5.64449">
        <ele>285.5</ele>
        <time>2011-04-19T11:23:41Z</time>
      </trkpt>
      <trkpt lat="45.29093" lon="5.6444">
        <ele>283.6</ele>
        <time>2011-04-19T11:23:42Z</time>
      </trkpt>
      <trkpt lat="45.29099" lon="5.64431">
        <ele>282.2</ele>
        <time>2011-04-19T11:23:43Z</time>
      </trkpt>
      <trkpt lat="45.29105" lon="5.64422">
        <ele>281.1</ele>
        <time>2011-04-19T11:23:44Z</time>
      </trkpt>
      <trkpt lat="45.29112" lon="5.64412">
        <ele>278.7</ele>
        <time>2011-04-19T11:23:45Z</time>
      </trkpt>
      <trkpt lat="45.29119" lon="5.64402">
        <ele>276.8</ele>
        <time>2011-04-19T11:23:46Z</time>
      </trkpt>
      <trkpt lat="45.29125" lon="5.64392">
        <ele>275.4</ele>
        <time>2011-04-19T11:23:47Z</time>
      </trkpt>
      <trkpt lat="45.29131" lon="5.64383">
        <ele>272.9</ele>
        <time>2011-04-19T11:23:48Z</time>
      </trkpt>
      <trkpt lat="45.29134" lon="5.64374">
        <ele>271.1</ele>
        <time>2011-04-19T11:23:49Z</time>
      </trkpt>
      <trkpt lat="45.29137" lon="5.64367">
        <ele>269.7</ele>
        <time>2011-04-19T11:23:50Z</time>
      </trkpt>
      <trkpt lat="45.29141" lon="5.64358">
        <ele>267.3</ele>
        <time>2011-04-19T11:23:52Z</time>
      </trkpt>
      <trkpt lat="45.29146" lon="5.64349">
        <ele>264.1</ele>
        <time>2011-04-19T11:23:58Z</time>
      </trkpt>
      <trkpt lat="45.29153" lon="5.64345">
        <ele>264</ele>
        <time>2011-04-19T11:24:00Z</time>
      </trkpt>
      <trkpt lat="45.29158" lon="5.64343">
        <ele>263.9</ele>
        <time>2011-04-19T11:24:01Z</time>
      </trkpt>
      <trkpt lat="45.29163" lon="5.64342">
        <ele>263.9</ele>
        <time>2011-04-19T11:24:02Z</time>
      </trkpt>
      <trkpt lat="45.29168" lon="5.6434">
        <ele>263.9</ele>
        <time>2011-04-19T11:24:03Z</time>
      </trkpt>
      <trkpt lat="45.29174" lon="5.64338">
        <ele>263.3</ele>
        <time>2011-04-19T11:24:04Z</time>
      </trkpt>
      <trkpt lat="45.29179" lon="5.64334">
        <ele>263</ele>
        <time>2011-04-19T11:24:05Z</time>
      </trkpt>
      <trkpt lat="45.29184" lon="5.64329">
        <ele>262.7</ele>
        <time>2011-04-19T11:24:06Z</time>
      </trkpt>
      <trkpt lat="45.29186" lon="5.64322">
        <ele>262.1</ele>
        <time>2011-04-19T11:24:07Z</time>
      </trkpt>
      <trkpt lat="45.29188" lon="5.64313">
        <ele>261.7</ele>
        <time>2011-04-19T11:24:08Z</time>
      </trkpt>
      <trkpt lat="45.29189" lon="5.64304">
        <ele>261.4</ele>
        <time>2011-04-19T11:24:09Z</time>
      </trkpt>
      <trkpt lat="45.29192" lon="5.64295">
        <ele>261.1</ele>
        <time>2011-04-19T11:24:10Z</time>
      </trkpt>
      <trkpt lat="45.29196" lon="5.64285">
        <ele>259.4</ele>
        <time>2011-04-19T11:24:11Z</time>
      </trkpt>
      <trkpt lat="45.29201" lon="5.64275">
        <ele>258.2</ele>
        <time>2011-04-19T11:24:12Z</time>
      </trkpt>
      <trkpt lat="45.29207" lon="5.64264">
        <ele>257.2</ele>
        <time>2011-04-19T11:24:13Z</time>
      </trkpt>
      <trkpt lat="45.29213" lon="5.64253">
        <ele>255.9</ele>
        <time>2011-04-19T11:24:14Z</time>
      </trkpt>
      <trkpt lat="45.29217" lon="5.6424">
        <ele>255</ele>
        <time>2011-04-19T11:24:15Z</time>
      </trkpt>
      <trkpt lat="45.2922" lon="5.64225">
        <ele>254.2</ele>
        <time>2011-04-19T11:24:16Z</time>
      </trkpt>
      <trkpt lat="45.29224" lon="5.6421">
        <ele>252</ele>
        <time>2011-04-19T11:24:17Z</time>
      </trkpt>
      <trkpt lat="45.29229" lon="5.64196">
        <ele>250.3</ele>
        <time>2011-04-19T11:24:18Z</time>
      </trkpt>
      <trkpt lat="45.29236" lon="5.64182">
        <ele>249</ele>
        <time>2011-04-19T11:24:19Z</time>
      </trkpt>
      <trkpt lat="45.29244" lon="5.64171">
        <ele>247</ele>
        <time>2011-04-19T11:24:20Z</time>
      </trkpt>
      <trkpt lat="45.29253" lon="5.6416">
        <ele>245.5</ele>
        <time>2011-04-19T11:24:21Z</time>
      </trkpt>
      <trkpt lat="45.29262" lon="5.64149">
        <ele>244.4</ele>
        <time>2011-04-19T11:24:22Z</time>
      </trkpt>
      <trkpt lat="45.2927" lon="5.64139">
        <ele>243.4</ele>
        <time>2011-04-19T11:24:23Z</time>
      </trkpt>
      <trkpt lat="45.29278" lon="5.64128">
        <ele>242.6</ele>
        <time>2011-04-19T11:24:24Z</time>
      </trkpt>
      <trkpt lat="45.29285" lon="5.64116">
        <ele>242</ele>
        <time>2011-04-19T11:24:25Z</time>
      </trkpt>
      <trkpt lat="45.29291" lon="5.64104">
        <ele>241</ele>
        <time>2011-04-19T11:24:26Z</time>
      </trkpt>
      <trkpt lat="45.29293" lon="5.64091">
        <ele>240.2</ele>
        <time>2011-04-19T11:24:27Z</time>
      </trkpt>
      <trkpt lat="45.29292" lon="5.64078">
        <ele>239.6</ele>
        <time>2011-04-19T11:24:28Z</time>
      </trkpt>
      <trkpt lat="45.29289" lon="5.64065">
        <ele>239.2</ele>
        <time>2011-04-19T11:24:29Z</time>
      </trkpt>
      <trkpt lat="45.29286" lon="5.64052">
        <ele>238.9</ele>
        <time>2011-04-19T11:24:30Z</time>
      </trkpt>
      <trkpt lat="45.29283" lon="5.6404">
        <ele>238.8</ele>
        <time>2011-04-19T11:24:31Z</time>
      </trkpt>
      <trkpt lat="45.29278" lon="5.64027">
        <ele>238.6</ele>
        <time>2011-04-19T11:24:32Z</time>
      </trkpt>
      <trkpt lat="45.29274" lon="5.64015">
        <ele>238</ele>
        <time>2011-04-19T11:24:33Z</time>
      </trkpt>
      <trkpt lat="45.29269" lon="5.64003">
        <ele>237.6</ele>
        <time>2011-04-19T11:24:34Z</time>
      </trkpt>
      <trkpt lat="45.29265" lon="5.63992">
        <ele>237.2</ele>
        <time>2011-04-19T11:24:35Z</time>
      </trkpt>
      <trkpt lat="45.29262" lon="5.63983">
        <ele>236.5</ele>
        <time>2011-04-19T11:24:36Z</time>
      </trkpt>
      <trkpt lat="45.2926" lon="5.63976">
        <ele>236</ele>
        <time>2011-04-19T11:24:37Z</time>
      </trkpt>
      <trkpt lat="45.29258" lon="5.63964">
        <ele>236.8</ele>
        <time>2011-04-19T11:24:40Z</time>
      </trkpt>
      <trkpt lat="45.29255" lon="5.63954">
        <ele>237.5</ele>
        <time>2011-04-19T11:24:44Z</time>
      </trkpt>
      <trkpt lat="45.29253" lon="5.63947">
        <ele>238</ele>
        <time>2011-04-19T11:24:54Z</time>
      </trkpt>
      <trkpt lat="45.2925" lon="5.63943">
        <ele>238.2</ele>
        <time>2011-04-19T11:24:55Z</time>
      </trkpt>
      <trkpt lat="45.29247" lon="5.63936">
        <ele>238.3</ele>
        <time>2011-04-19T11:24:56Z</time>
      </trkpt>
      <trkpt lat="45.29244" lon="5.6393">
        <ele>238.4</ele>
        <time>2011-04-19T11:24:57Z</time>
      </trkpt>
      <trkpt lat="45.29242" lon="5.63923">
        <ele>238</ele>
        <time>2011-04-19T11:24:58Z</time>
      </trkpt>
      <trkpt lat="45.29239" lon="5.63916">
        <ele>237.7</ele>
        <time>2011-04-19T11:24:59Z</time>
      </trkpt>
      <trkpt lat="45.29237" lon="5.63908">
        <ele>237.4</ele>
        <time>2011-04-19T11:25:00Z</time>
      </trkpt>
      <trkpt lat="45.29233" lon="5.63901">
        <ele>237</ele>
        <time>2011-04-19T11:25:01Z</time>
      </trkpt>
      <trkpt lat="45.2923" lon="5.63893">
        <ele>236.7</ele>
        <time>2011-04-19T11:25:02Z</time>
      </trkpt>
      <trkpt lat="45.29226" lon="5.63885">
        <ele>236.4</ele>
        <time>2011-04-19T11:25:03Z</time>
      </trkpt>
      <trkpt lat="45.29223" lon="5.63877">
        <ele>235.7</ele>
        <time>2011-04-19T11:25:04Z</time>
      </trkpt>
      <trkpt lat="45.2922" lon="5.63869">
        <ele>235.1</ele>
        <time>2011-04-19T11:25:05Z</time>
      </trkpt>
      <trkpt lat="45.29217" lon="5.6386">
        <ele>234.7</ele>
        <time>2011-04-19T11:25:06Z</time>
      </trkpt>
      <trkpt lat="45.29214" lon="5.63851">
        <ele>234.4</ele>
        <time>2011-04-19T11:25:07Z</time>
      </trkpt>
      <trkpt lat="45.29211" lon="5.63842">
        <ele>233.3</ele>
        <time>2011-04-19T11:25:08Z</time>
      </trkpt>
      <trkpt lat="45.29209" lon="5.63833">
        <ele>232.5</ele>
        <time>2011-04-19T11:25:09Z</time>
      </trkpt>
      <trkpt lat="45.29206" lon="5.63824">
        <ele>231.9</ele>
        <time>2011-04-19T11:25:10Z</time>
      </trkpt>
      <trkpt lat="45.29203" lon="5.63815">
        <ele>232.1</ele>
        <time>2011-04-19T11:25:11Z</time>
      </trkpt>
      <trkpt lat="45.292" lon="5.63806">
        <ele>232.2</ele>
        <time>2011-04-19T11:25:12Z</time>
      </trkpt>
      <trkpt lat="45.29198" lon="5.63797">
        <ele>232.3</ele>
        <time>2011-04-19T11:25:13Z</time>
      </trkpt>
      <trkpt lat="45.29194" lon="5.63789">
        <ele>231.5</ele>
        <time>2011-04-19T11:25:14Z</time>
      </trkpt>
      <trkpt lat="45.29191" lon="5.6378">
        <ele>230.9</ele>
        <time>2011-04-19T11:25:15Z</time>
      </trkpt>
      <trkpt lat="45.29189" lon="5.63771">
        <ele>230.4</ele>
        <time>2011-04-19T11:25:16Z</time>
      </trkpt>
      <trkpt lat="45.29187" lon="5.63762">
        <ele>230.2</ele>
        <time>2011-04-19T11:25:17Z</time>
      </trkpt>
      <trkpt lat="45.29185" lon="5.63753">
        <ele>230.1</ele>
        <time>2011-04-19T11:25:18Z</time>
      </trkpt>
      <trkpt lat="45.29184" lon="5.63745">
        <ele>230</ele>
        <time>2011-04-19T11:25:19Z</time>
      </trkpt>
      <trkpt lat="45.29185" lon="5.63737">
        <ele>230.1</ele>
        <time>2011-04-19T11:25:20Z</time>
      </trkpt>
      <trkpt lat="45.29187" lon="5.63731">
        <ele>230.2</ele>
        <time>2011-04-19T11:25:21Z</time>
      </trkpt>
      <trkpt lat="45.29191" lon="5.6372">
        <ele>230.8</ele>
        <time>2011-04-19T11:25:23Z</time>
      </trkpt>
      <trkpt lat="45.29193" lon="5.63714">
        <ele>231.2</ele>
        <time>2011-04-19T11:25:24Z</time>
      </trkpt>
      <trkpt lat="45.29195" lon="5.63708">
        <ele>231.5</ele>
        <time>2011-04-19T11:25:25Z</time>
      </trkpt>
      <trkpt lat="45.29198" lon="5.63703">
        <ele>231.7</ele>
        <time>2011-04-19T11:25:26Z</time>
      </trkpt>
      <trkpt lat="45.29201" lon="5.63697">
        <ele>231.7</ele>
        <time>2011-04-19T11:25:27Z</time>
      </trkpt>
      <trkpt lat="45.29203" lon="5.63692">
        <ele>231.7</ele>
        <time>2011-04-19T11:25:28Z</time>
      </trkpt>
      <trkpt lat="45.29208" lon="5.63682">
        <ele>232.3</ele>
        <time>2011-04-19T11:25:30Z</time>
      </trkpt>
      <trkpt lat="45.29213" lon="5.63673">
        <ele>233.1</ele>
        <time>2011-04-19T11:25:32Z</time>
      </trkpt>
      <trkpt lat="45.29214" lon="5.63661">
        <ele>233.8</ele>
        <time>2011-04-19T11:25:35Z</time>
      </trkpt>
      <trkpt lat="45.29213" lon="5.63659">
        <ele>234</ele>
        <time>2011-04-19T11:25:36Z</time>
      </trkpt>
      <trkpt lat="45.29225" lon="5.63647">
        <ele>234.3</ele>
        <time>2011-04-19T11:25:43Z</time>
      </trkpt>
      <trkpt lat="45.2923" lon="5.63639">
        <ele>234.1</ele>
        <time>2011-04-19T11:25:45Z</time>
      </trkpt>
      <trkpt lat="45.29234" lon="5.6363">
        <ele>233.8</ele>
        <time>2011-04-19T11:25:47Z</time>
      </trkpt>
      <trkpt lat="45.29238" lon="5.63622">
        <ele>233.7</ele>
        <time>2011-04-19T11:25:49Z</time>
      </trkpt>
      <trkpt lat="45.29237" lon="5.63612">
        <ele>233.8</ele>
        <time>2011-04-19T11:25:51Z</time>
      </trkpt>
      <trkpt lat="45.29235" lon="5.63602">
        <ele>233.9</ele>
        <time>2011-04-19T11:25:53Z</time>
      </trkpt>
      <trkpt lat="45.29233" lon="5.63591">
        <ele>233.8</ele>
        <time>2011-04-19T11:25:55Z</time>
      </trkpt>
      <trkpt lat="45.29231" lon="5.6358">
        <ele>233.6</ele>
        <time>2011-04-19T11:25:57Z</time>
      </trkpt>
      <trkpt lat="45.29227" lon="5.63573">
        <ele>234.1</ele>
        <time>2011-04-19T11:25:59Z</time>
      </trkpt>
      <trkpt lat="45.29218" lon="5.63571">
        <ele>234.3</ele>
        <time>2011-04-19T11:26:01Z</time>
      </trkpt>
      <trkpt lat="45.29209" lon="5.63569">
        <ele>234.4</ele>
        <time>2011-04-19T11:26:03Z</time>
      </trkpt>
      <trkpt lat="45.29206" lon="5.63565">
        <ele>234.4</ele>
        <time>2011-04-19T11:26:04Z</time>
      </trkpt>
      <trkpt lat="45.29204" lon="5.63559">
        <ele>234.4</ele>
        <time>2011-04-19T11:26:05Z</time>
      </trkpt>
      <trkpt lat="45.29204" lon="5.63552">
        <ele>234.4</ele>
        <time>2011-04-19T11:26:06Z</time>
      </trkpt>
      <trkpt lat="45.29204" lon="5.63545">
        <ele>234.5</ele>
        <time>2011-04-19T11:26:07Z</time>
      </trkpt>
      <trkpt lat="45.29203" lon="5.63538">
        <ele>234</ele>
        <time>2011-04-19T11:26:08Z</time>
      </trkpt>
      <trkpt lat="45.29202" lon="5.63531">
        <ele>233.6</ele>
        <time>2011-04-19T11:26:09Z</time>
      </trkpt>
      <trkpt lat="45.29202" lon="5.63524">
        <ele>233.3</ele>
        <time>2011-04-19T11:26:10Z</time>
      </trkpt>
      <trkpt lat="45.29202" lon="5.63512">
        <ele>233.3</ele>
        <time>2011-04-19T11:26:12Z</time>
      </trkpt>
      <trkpt lat="45.29202" lon="5.63501">
        <ele>233.3</ele>
        <time>2011-04-19T11:26:14Z</time>
      </trkpt>
      <trkpt lat="45.29197" lon="5.63494">
        <ele>233.4</ele>
        <time>2011-04-19T11:26:16Z</time>
      </trkpt>
      <trkpt lat="45.29192" lon="5.63487">
        <ele>233.3</ele>
        <time>2011-04-19T11:26:18Z</time>
      </trkpt>
      <trkpt lat="45.29193" lon="5.63474">
        <ele>233.3</ele>
        <time>2011-04-19T11:26:20Z</time>
      </trkpt>
      <trkpt lat="45.29193" lon="5.63467">
        <ele>232.9</ele>
        <time>2011-04-19T11:26:21Z</time>
      </trkpt>
      <trkpt lat="45.29194" lon="5.63459">
        <ele>232.5</ele>
        <time>2011-04-19T11:26:22Z</time>
      </trkpt>
      <trkpt lat="45.29195" lon="5.63451">
        <ele>232.3</ele>
        <time>2011-04-19T11:26:23Z</time>
      </trkpt>
      <trkpt lat="45.29194" lon="5.63444">
        <ele>231.5</ele>
        <time>2011-04-19T11:26:24Z</time>
      </trkpt>
      <trkpt lat="45.29192" lon="5.63437">
        <ele>230.8</ele>
        <time>2011-04-19T11:26:25Z</time>
      </trkpt>
      <trkpt lat="45.29192" lon="5.63429">
        <ele>230.4</ele>
        <time>2011-04-19T11:26:26Z</time>
      </trkpt>
      <trkpt lat="45.29192" lon="5.63422">
        <ele>229.9</ele>
        <time>2011-04-19T11:26:27Z</time>
      </trkpt>
      <trkpt lat="45.29193" lon="5.63414">
        <ele>229.5</ele>
        <time>2011-04-19T11:26:28Z</time>
      </trkpt>
      <trkpt lat="45.29193" lon="5.63407">
        <ele>229.3</ele>
        <time>2011-04-19T11:26:29Z</time>
      </trkpt>
      <trkpt lat="45.29194" lon="5.63399">
        <ele>228.9</ele>
        <time>2011-04-19T11:26:30Z</time>
      </trkpt>
      <trkpt lat="45.29194" lon="5.63392">
        <ele>228.7</ele>
        <time>2011-04-19T11:26:31Z</time>
      </trkpt>
      <trkpt lat="45.29195" lon="5.63385">
        <ele>228.5</ele>
        <time>2011-04-19T11:26:32Z</time>
      </trkpt>
      <trkpt lat="45.29196" lon="5.63378">
        <ele>228.7</ele>
        <time>2011-04-19T11:26:33Z</time>
      </trkpt>
      <trkpt lat="45.29196" lon="5.63371">
        <ele>228.8</ele>
        <time>2011-04-19T11:26:34Z</time>
      </trkpt>
      <trkpt lat="45.29197" lon="5.63364">
        <ele>228.9</ele>
        <time>2011-04-19T11:26:35Z</time>
      </trkpt>
      <trkpt lat="45.29197" lon="5.63357">
        <ele>229</ele>
        <time>2011-04-19T11:26:36Z</time>
      </trkpt>
      <trkpt lat="45.29198" lon="5.6335">
        <ele>229.4</ele>
        <time>2011-04-19T11:26:37Z</time>
      </trkpt>
      <trkpt lat="45.29199" lon="5.63343">
        <ele>229.7</ele>
        <time>2011-04-19T11:26:38Z</time>
      </trkpt>
      <trkpt lat="45.292" lon="5.63337">
        <ele>229.9</ele>
        <time>2011-04-19T11:26:39Z</time>
      </trkpt>
      <trkpt lat="45.29202" lon="5.6333">
        <ele>230.2</ele>
        <time>2011-04-19T11:26:40Z</time>
      </trkpt>
      <trkpt lat="45.29204" lon="5.63324">
        <ele>230.4</ele>
        <time>2011-04-19T11:26:41Z</time>
      </trkpt>
      <trkpt lat="45.29206" lon="5.63317">
        <ele>230.5</ele>
        <time>2011-04-19T11:26:42Z</time>
      </trkpt>
      <trkpt lat="45.29209" lon="5.63311">
        <ele>230.3</ele>
        <time>2011-04-19T11:26:43Z</time>
      </trkpt>
      <trkpt lat="45.29212" lon="5.63305">
        <ele>230.1</ele>
        <time>2011-04-19T11:26:44Z</time>
      </trkpt>
      <trkpt lat="45.29215" lon="5.63299">
        <ele>230</ele>
        <time>2011-04-19T11:26:45Z</time>
      </trkpt>
      <trkpt lat="45.29219" lon="5.63294">
        <ele>230.1</ele>
        <time>2011-04-19T11:26:46Z</time>
      </trkpt>
      <trkpt lat="45.29222" lon="5.63289">
        <ele>230.1</ele>
        <time>2011-04-19T11:26:47Z</time>
      </trkpt>
      <trkpt lat="45.29225" lon="5.63283">
        <ele>230.1</ele>
        <time>2011-04-19T11:26:48Z</time>
      </trkpt>
      <trkpt lat="45.29229" lon="5.63278">
        <ele>230.6</ele>
        <time>2011-04-19T11:26:49Z</time>
      </trkpt>
      <trkpt lat="45.29232" lon="5.63273">
        <ele>231</ele>
        <time>2011-04-19T11:26:50Z</time>
      </trkpt>
      <trkpt lat="45.29235" lon="5.63268">
        <ele>231.3</ele>
        <time>2011-04-19T11:26:51Z</time>
      </trkpt>
      <trkpt lat="45.29239" lon="5.63263">
        <ele>231.4</ele>
        <time>2011-04-19T11:26:52Z</time>
      </trkpt>
      <trkpt lat="45.29242" lon="5.63258">
        <ele>231.5</ele>
        <time>2011-04-19T11:26:53Z</time>
      </trkpt>
      <trkpt lat="45.29246" lon="5.63254">
        <ele>231.6</ele>
        <time>2011-04-19T11:26:54Z</time>
      </trkpt>
      <trkpt lat="45.29249" lon="5.63249">
        <ele>231.8</ele>
        <time>2011-04-19T11:26:55Z</time>
      </trkpt>
      <trkpt lat="45.29252" lon="5.63244">
        <ele>232</ele>
        <time>2011-04-19T11:26:56Z</time>
      </trkpt>
      <trkpt lat="45.29256" lon="5.63239">
        <ele>232.1</ele>
        <time>2011-04-19T11:26:57Z</time>
      </trkpt>
      <trkpt lat="45.29259" lon="5.63234">
        <ele>232.1</ele>
        <time>2011-04-19T11:26:58Z</time>
      </trkpt>
      <trkpt lat="45.29263" lon="5.63229">
        <ele>232.3</ele>
        <time>2011-04-19T11:26:59Z</time>
      </trkpt>
      <trkpt lat="45.29266" lon="5.63224">
        <ele>232.5</ele>
        <time>2011-04-19T11:27:00Z</time>
      </trkpt>
      <trkpt lat="45.2927" lon="5.6322">
        <ele>232.6</ele>
        <time>2011-04-19T11:27:01Z</time>
      </trkpt>
      <trkpt lat="45.29273" lon="5.63216">
        <ele>232.6</ele>
        <time>2011-04-19T11:27:02Z</time>
      </trkpt>
      <trkpt lat="45.29277" lon="5.63211">
        <ele>232.7</ele>
        <time>2011-04-19T11:27:03Z</time>
      </trkpt>
      <trkpt lat="45.29285" lon="5.63205">
        <ele>232.5</ele>
        <time>2011-04-19T11:27:05Z</time>
      </trkpt>
      <trkpt lat="45.29289" lon="5.63202">
        <ele>232.4</ele>
        <time>2011-04-19T11:27:06Z</time>
      </trkpt>
      <trkpt lat="45.29293" lon="5.63199">
        <ele>232.3</ele>
        <time>2011-04-19T11:27:07Z</time>
      </trkpt>
      <trkpt lat="45.29297" lon="5.63196">
        <ele>232.5</ele>
        <time>2011-04-19T11:27:08Z</time>
      </trkpt>
      <trkpt lat="45.29301" lon="5.63192">
        <ele>232.7</ele>
        <time>2011-04-19T11:27:09Z</time>
      </trkpt>
      <trkpt lat="45.29305" lon="5.63189">
        <ele>232.8</ele>
        <time>2011-04-19T11:27:10Z</time>
      </trkpt>
      <trkpt lat="45.29313" lon="5.63182">
        <ele>232.6</ele>
        <time>2011-04-19T11:27:12Z</time>
      </trkpt>
      <trkpt lat="45.2932" lon="5.63176">
        <ele>232.6</ele>
        <time>2011-04-19T11:27:14Z</time>
      </trkpt>
      <trkpt lat="45.29327" lon="5.63169">
        <ele>232.7</ele>
        <time>2011-04-19T11:27:17Z</time>
      </trkpt>
      <trkpt lat="45.29334" lon="5.63162">
        <ele>233.8</ele>
        <time>2011-04-19T11:27:21Z</time>
      </trkpt>
      <trkpt lat="45.2934" lon="5.63155">
        <ele>233.5</ele>
        <time>2011-04-19T11:27:24Z</time>
      </trkpt>
      <trkpt lat="45.29345" lon="5.63149">
        <ele>233.3</ele>
        <time>2011-04-19T11:27:26Z</time>
      </trkpt>
      <trkpt lat="45.29351" lon="5.63145">
        <ele>234.1</ele>
        <time>2011-04-19T11:27:28Z</time>
      </trkpt>
      <trkpt lat="45.29358" lon="5.6314">
        <ele>234.4</ele>
        <time>2011-04-19T11:27:30Z</time>
      </trkpt>
      <trkpt lat="45.29366" lon="5.63136">
        <ele>234.4</ele>
        <time>2011-04-19T11:27:32Z</time>
      </trkpt>
      <trkpt lat="45.29374" lon="5.63132">
        <ele>234.5</ele>
        <time>2011-04-19T11:27:34Z</time>
      </trkpt>
      <trkpt lat="45.29382" lon="5.63129">
        <ele>234.6</ele>
        <time>2011-04-19T11:27:36Z</time>
      </trkpt>
      <trkpt lat="45.2939" lon="5.63126">
        <ele>234.8</ele>
        <time>2011-04-19T11:27:38Z</time>
      </trkpt>
      <trkpt lat="45.29394" lon="5.63124">
        <ele>234.9</ele>
        <time>2011-04-19T11:27:39Z</time>
      </trkpt>
      <trkpt lat="45.29406" lon="5.63118">
        <ele>235.3</ele>
        <time>2011-04-19T11:27:42Z</time>
      </trkpt>
      <trkpt lat="45.29414" lon="5.63114">
        <ele>235.7</ele>
        <time>2011-04-19T11:27:44Z</time>
      </trkpt>
      <trkpt lat="45.29422" lon="5.6311">
        <ele>236.3</ele>
        <time>2011-04-19T11:27:46Z</time>
      </trkpt>
      <trkpt lat="45.29429" lon="5.63104">
        <ele>236.9</ele>
        <time>2011-04-19T11:27:48Z</time>
      </trkpt>
      <trkpt lat="45.29437" lon="5.63099">
        <ele>236.9</ele>
        <time>2011-04-19T11:27:50Z</time>
      </trkpt>
      <trkpt lat="45.29444" lon="5.63093">
        <ele>236.9</ele>
        <time>2011-04-19T11:27:52Z</time>
      </trkpt>
      <trkpt lat="45.2945" lon="5.63087">
        <ele>238.7</ele>
        <time>2011-04-19T11:27:54Z</time>
      </trkpt>
      <trkpt lat="45.29457" lon="5.6308">
        <ele>238.8</ele>
        <time>2011-04-19T11:27:56Z</time>
      </trkpt>
      <trkpt lat="45.29458" lon="5.63071">
        <ele>238.2</ele>
        <time>2011-04-19T11:27:58Z</time>
      </trkpt>
      <trkpt lat="45.29457" lon="5.63059">
        <ele>238.2</ele>
        <time>2011-04-19T11:28:00Z</time>
      </trkpt>
      <trkpt lat="45.29456" lon="5.63047">
        <ele>238.2</ele>
        <time>2011-04-19T11:28:02Z</time>
      </trkpt>
      <trkpt lat="45.29456" lon="5.63035">
        <ele>238</ele>
        <time>2011-04-19T11:28:04Z</time>
      </trkpt>
      <trkpt lat="45.29457" lon="5.63023">
        <ele>237.7</ele>
        <time>2011-04-19T11:28:06Z</time>
      </trkpt>
      <trkpt lat="45.29457" lon="5.63011">
        <ele>237.6</ele>
        <time>2011-04-19T11:28:08Z</time>
      </trkpt>
      <trkpt lat="45.29457" lon="5.62999">
        <ele>236.9</ele>
        <time>2011-04-19T11:28:10Z</time>
      </trkpt>
      <trkpt lat="45.29457" lon="5.62986">
        <ele>236.9</ele>
        <time>2011-04-19T11:28:12Z</time>
      </trkpt>
      <trkpt lat="45.29457" lon="5.62979">
        <ele>237</ele>
        <time>2011-04-19T11:28:13Z</time>
      </trkpt>
      <trkpt lat="45.29457" lon="5.62973">
        <ele>237.2</ele>
        <time>2011-04-19T11:28:14Z</time>
      </trkpt>
      <trkpt lat="45.29458" lon="5.62966">
        <ele>236.9</ele>
        <time>2011-04-19T11:28:15Z</time>
      </trkpt>
      <trkpt lat="45.29459" lon="5.62959">
        <ele>236.6</ele>
        <time>2011-04-19T11:28:16Z</time>
      </trkpt>
      <trkpt lat="45.2946" lon="5.62953">
        <ele>236.5</ele>
        <time>2011-04-19T11:28:17Z</time>
      </trkpt>
      <trkpt lat="45.29463" lon="5.62947">
        <ele>236.1</ele>
        <time>2011-04-19T11:28:18Z</time>
      </trkpt>
      <trkpt lat="45.2947" lon="5.62941">
        <ele>235.6</ele>
        <time>2011-04-19T11:28:20Z</time>
      </trkpt>
      <trkpt lat="45.29476" lon="5.62937">
        <ele>234.8</ele>
        <time>2011-04-19T11:28:22Z</time>
      </trkpt>
      <trkpt lat="45.29484" lon="5.62933">
        <ele>234.9</ele>
        <time>2011-04-19T11:28:24Z</time>
      </trkpt>
      <trkpt lat="45.29492" lon="5.6293">
        <ele>235.3</ele>
        <time>2011-04-19T11:28:26Z</time>
      </trkpt>
      <trkpt lat="45.295" lon="5.62929">
        <ele>235.5</ele>
        <time>2011-04-19T11:28:28Z</time>
      </trkpt>
      <trkpt lat="45.29508" lon="5.62927">
        <ele>235.6</ele>
        <time>2011-04-19T11:28:30Z</time>
      </trkpt>
      <trkpt lat="45.29516" lon="5.62922">
        <ele>235.7</ele>
        <time>2011-04-19T11:28:32Z</time>
      </trkpt>
      <trkpt lat="45.29523" lon="5.62927">
        <ele>235.8</ele>
        <time>2011-04-19T11:28:34Z</time>
      </trkpt>
      <trkpt lat="45.29528" lon="5.62936">
        <ele>235.9</ele>
        <time>2011-04-19T11:28:36Z</time>
      </trkpt>
      <trkpt lat="45.29536" lon="5.62937">
        <ele>236.3</ele>
        <time>2011-04-19T11:28:39Z</time>
      </trkpt>
      <trkpt lat="45.29539" lon="5.62936">
        <ele>236.5</ele>
        <time>2011-04-19T11:28:40Z</time>
      </trkpt>
      <trkpt lat="45.29552" lon="5.62935">
        <ele>235.4</ele>
        <time>2011-04-19T11:28:46Z</time>
      </trkpt>
      <trkpt lat="45.29559" lon="5.62928">
        <ele>235.7</ele>
        <time>2011-04-19T11:28:51Z</time>
      </trkpt>
      <trkpt lat="45.2956" lon="5.62919">
        <ele>236.6</ele>
        <time>2011-04-19T11:29:39Z</time>
      </trkpt>
    </trkseg>
  </trk>
</gpx>